Home > Products > Valid Products > TAF

000
FTUS44 KHGX 012324 CCA
TAFUTS
TAF COR
KUTS 012324Z 0200/0224 35005KT 1SM BR OVC002
     FM020900 VRB03KT 1SM BR VCSH OVC002
     FM021500 35004KT 2SM BR VCSH OVC006
     FM021900 35006KT 5SM BR OVC009=



000
FTUS44 KHGX 012324 CCA
TAFUTS
TAF COR
KUTS 012324Z 0200/0224 35005KT 1SM BR OVC002
     FM020900 VRB03KT 1SM BR VCSH OVC002
     FM021500 35004KT 2SM BR VCSH OVC006
     FM021900 35006KT 5SM BR OVC009=



000
FTUS44 KHGX 012320
TAFGLS
TAF
KGLS 012320Z 0200/0224 15006KT 1/2SM FG OVC002
     FM020300 02006KT 1/4SM FG OVC002
     FM021900 02008KT 4SM BR SCT002 OVC007=



000
FTUS44 KHGX 012320
TAFCXO
TAF
KCXO 012320Z 0200/0224 34007KT 1SM -DZ BR OVC004
     FM020400 34007KT 1/2SM FG OVC002
     FM020900 34007KT 1SM BR VCSH OVC002
     FM021500 35007KT 2SM BR VCSH OVC006
     FM022000 35005KT 4SM BR OVC007=



000
FTUS44 KHGX 012320
TAFUTS
TAF
KUTS 012320Z 0200/0224 35006KT 3SM BR OVC003
     FM020400 VRB03KT 1SM BR OVC002
     FM020900 VRB03KT 1SM BR VCSH OVC002
     FM021500 35004KT 2SM BR VCSH OVC006
     FM021900 35006KT 5SM BR OVC009=



000
FTUS44 KHGX 012320
TAFCLL
TAF
KCLL 012320Z 0200/0224 35008KT 1/2SM FG OVC003
     FM020900 35010KT 1SM BR VCSH OVC002
     FM021500 35007KT 2SM BR VCSH OVC006
     FM021900 35006KT 5SM BR OVC012=



000
FTUS44 KHGX 012320
TAFCLL
TAF
KCLL 012320Z 0200/0224 35008KT 1/2SM FG OVC003
     FM020900 35010KT 1SM BR VCSH OVC002
     FM021500 35007KT 2SM BR VCSH OVC006
     FM021900 35006KT 5SM BR OVC012=



000
FTUS44 KHGX 012320
TAFGLS
TAF
KGLS 012320Z 0200/0224 15006KT 1/2SM FG OVC002
     FM020300 02006KT 1/4SM FG OVC002
     FM021900 02008KT 4SM BR SCT002 OVC007=



000
FTUS44 KHGX 012320
TAFCXO
TAF
KCXO 012320Z 0200/0224 34007KT 1SM -DZ BR OVC004
     FM020400 34007KT 1/2SM FG OVC002
     FM020900 34007KT 1SM BR VCSH OVC002
     FM021500 35007KT 2SM BR VCSH OVC006
     FM022000 35005KT 4SM BR OVC007=



000
FTUS44 KHGX 012320
TAFUTS
TAF
KUTS 012320Z 0200/0224 35006KT 3SM BR OVC003
     FM020400 VRB03KT 1SM BR OVC002
     FM020900 VRB03KT 1SM BR VCSH OVC002
     FM021500 35004KT 2SM BR VCSH OVC006
     FM021900 35006KT 5SM BR OVC009=



000
FTUS44 KHGX 012320
TAFLBX
TAF
KLBX 012320Z 0200/0224 VRB06KT P6SM BKN015 BKN025
     FM020100 01007KT 4SM BR SCT006 OVC015
     FM020300 01006KT 2SM BR OVC005
     FM020500 01006KT 1SM BR OVC002
     FM021600 02007KT 1SM BR OVC004
     FM021800 02007KT 5SM BR OVC006=



000
FTUS44 KHGX 012320
TAFIAH
TAF
KIAH 012320Z 0200/0306 33007KT 1SM BR OVC003
     FM020400 36006KT 1/2SM FG OVC002
     FM021000 36006KT 1SM BR VCSH OVC002
     FM021500 36004KT 2SM BR VCSH OVC006
     FM022000 35006KT 4SM BR OVC007
     FM030300 07005KT 2SM BR OVC004=



000
FTUS44 KHGX 012320
TAFHOU
TAF
KHOU 012320Z 0200/0224 34008KT 6SM BR BKN006 OVC015
     FM020200 35007KT 4SM BR OVC006
     FM020500 34007KT 1SM BR OVC004
     FM020700 34006KT 1/2SM FG VCSH OVC003
     FM021500 01005KT 2SM BR OVC009
     FM022000 03005KT 4SM BR OVC007=



000
FTUS44 KHGX 012320
TAFLBX
TAF
KLBX 012320Z 0200/0224 VRB06KT P6SM BKN015 BKN025
     FM020100 01007KT 4SM BR SCT006 OVC015
     FM020300 01006KT 2SM BR OVC005
     FM020500 01006KT 1SM BR OVC002
     FM021600 02007KT 1SM BR OVC004
     FM021800 02007KT 5SM BR OVC006=



000
FTUS44 KHGX 012320
TAFHOU
TAF
KHOU 012320Z 0200/0224 34008KT 6SM BR BKN006 OVC015
     FM020200 35007KT 4SM BR OVC006
     FM020500 34007KT 1SM BR OVC004
     FM020700 34006KT 1/2SM FG VCSH OVC003
     FM021500 01005KT 2SM BR OVC009
     FM022000 03005KT 4SM BR OVC007=



000
FTUS44 KHGX 012320
TAFIAH
TAF
KIAH 012320Z 0200/0306 33007KT 1SM BR OVC003
     FM020400 36006KT 1/2SM FG OVC002
     FM021000 36006KT 1SM BR VCSH OVC002
     FM021500 36004KT 2SM BR VCSH OVC006
     FM022000 35006KT 4SM BR OVC007
     FM030300 07005KT 2SM BR OVC004=



000
FTUS44 KHGX 012320
TAFSGR
TAF
KSGR 012320Z 0200/0224 34006KT 3SM BR OVC005
     FM020300 36006KT 2SM BR OVC003
     FM021000 36006KT 1SM BR VCSH OVC002
     FM021500 36004KT 2SM BR VCSH OVC006
     FM022000 35006KT 4SM BR OVC007=



000
FTUS44 KHGX 012320
TAFSGR
TAF
KSGR 012320Z 0200/0224 34006KT 3SM BR OVC005
     FM020300 36006KT 2SM BR OVC003
     FM021000 36006KT 1SM BR VCSH OVC002
     FM021500 36004KT 2SM BR VCSH OVC006
     FM022000 35006KT 4SM BR OVC007=



000
FTUS44 KHGX 012206 AAA
TAFUTS
TAF AMD
KUTS 012206Z 0122/0218 34004KT 1SM BR OVC002
     FM020400 VRB03KT 1/2SM FG OVC004
     FM021500 35004KT 2SM BR VCSH OVC006=



000
FTUS44 KHGX 012206 AAA
TAFUTS
TAF AMD
KUTS 012206Z 0122/0218 34004KT 1SM BR OVC002
     FM020400 VRB03KT 1/2SM FG OVC004
     FM021500 35004KT 2SM BR VCSH OVC006=



000
FTUS44 KHGX 012206 AAA
TAFUTS
TAF AMD
KUTS 012206Z 0122/0218 34004KT 1SM BR OVC002
     FM020400 VRB03KT 1/2SM FG OVC004
     FM021500 35004KT 2SM BR VCSH OVC006=



000
FTUS44 KHGX 012206 AAB
TAFUTS
TAF AMD
KUTS 012206Z 0122/0218 34004KT 1SM BR OVC002
     FM020400 VRB03KT 1/2SM FG OVC004
     FM021500 35004KT 2SM BR VCSH OVC006=



000
FTUS44 KHGX 012206 AAB
TAFUTS
TAF AMD
KUTS 012206Z 0122/0218 34004KT 1SM BR OVC002
     FM020400 VRB03KT 1/2SM FG OVC004
     FM021500 35004KT 2SM BR VCSH OVC006=



000
FTUS44 KHGX 012206 AAB
TAFUTS
TAF AMD
KUTS 012206Z 0122/0218 34004KT 1SM BR OVC002
     FM020400 VRB03KT 1/2SM FG OVC004
     FM021500 35004KT 2SM BR VCSH OVC006=



000
FTUS44 KHGX 012206 AAB
TAFUTS
TAF AMD
KUTS 012206Z 0122/0218 34004KT 1SM BR OVC002
     FM020400 VRB03KT 1/2SM FG OVC004
     FM021500 35004KT 2SM BR VCSH OVC006=



000
FTUS44 KHGX 012206 AAA
TAFUTS
TAF AMD
KUTS 012206Z 0122/0218 34004KT 1SM BR OVC002
     FM020400 VRB03KT 1/2SM FG OVC004
     FM021500 35004KT 2SM BR VCSH OVC006=



000
FTUS44 KHGX 012119 AAA
TAFIAH
TAF AMD
KIAH 012119Z 0121/0224 33007KT 1SM BR OVC003
      TEMPO 0200/0204 1/2SM FG
     FM020400 VRB03KT 1/2SM FG OVC004
     FM021500 36004KT 2SM BR VCSH OVC009=



000
FTUS44 KHGX 012119 AAA
TAFHOU
TAF AMD
KHOU 012119Z 0121/0218 34007KT P6SM BKN008 BKN028
     FM020000 VRB03KT 1SM BR OVC004
      TEMPO 0200/0204 1/2SM FG
     FM020400 01004KT 1/2SM FG OVC004
     FM021500 36004KT 2SM BR VCSH OVC009=



000
FTUS44 KHGX 012119 AAA
TAFHOU
TAF AMD
KHOU 012119Z 0121/0218 34007KT P6SM BKN008 BKN028
     FM020000 VRB03KT 1SM BR OVC004
      TEMPO 0200/0204 1/2SM FG
     FM020400 01004KT 1/2SM FG OVC004
     FM021500 36004KT 2SM BR VCSH OVC009=



000
FTUS44 KHGX 012119 AAA
TAFIAH
TAF AMD
KIAH 012119Z 0121/0224 33007KT 1SM BR OVC003
      TEMPO 0200/0204 1/2SM FG
     FM020400 VRB03KT 1/2SM FG OVC004
     FM021500 36004KT 2SM BR VCSH OVC009=



000
FTUS44 KHGX 012014 AAA
TAFGLS
TAF AMD
KGLS 012014Z 0120/0218 13008KT 2SM BR OVC003
      TEMPO 0120/0124 1/2SM FG VV003
     FM020000 06004KT 1/4SM FG OVC004=



000
FTUS44 KHGX 012014 AAA
TAFGLS
TAF AMD
KGLS 012014Z 0120/0218 13008KT 2SM BR OVC003
      TEMPO 0120/0124 1/2SM FG VV003
     FM020000 06004KT 1/4SM FG OVC004=



000
FTUS44 KHGX 012013 AAA
TAFSGR
TAF AMD
KSGR 012013Z 0120/0218 34006KT 3SM BR OVC003
     FM012200 02007KT 1SM BR OVC004
      TEMPO 0200/0204 1/2SM FG
     FM020400 VRB03KT 1/2SM FG OVC004
     FM021500 36004KT 2SM BR VCSH OVC009=



000
FTUS44 KHGX 012013 AAA
TAFSGR
TAF AMD
KSGR 012013Z 0120/0218 34006KT 3SM BR OVC003
     FM012200 02007KT 1SM BR OVC004
      TEMPO 0200/0204 1/2SM FG
     FM020400 VRB03KT 1/2SM FG OVC004
     FM021500 36004KT 2SM BR VCSH OVC009=



000
FTUS44 KHGX 012013 AAA
TAFLBX
TAF AMD
KLBX 012013Z 0120/0218 19015KT P6SM BKN016 BKN021
     FM012200 10007KT 1SM BR OVC004
     FM020000 03004KT 1/2SM FG OVC003
     FM021500 02007KT 1SM BR OVC004=



000
FTUS44 KHGX 011732
TAFHOU
TAF
KHOU 011732Z 0118/0218 04004KT 1SM -RA BR OVC003
      TEMPO 0118/0120 1/2SM FG VV002
     FM012000 02007KT 1SM BR OVC004
      TEMPO 0200/0204 1/2SM FG
     FM020400 VRB03KT 1/2SM FG OVC004
     FM021500 36004KT 2SM BR VCSH OVC009=



000
FTUS44 KHGX 011732
TAFHOU
TAF
KHOU 011732Z 0118/0218 04004KT 1SM -RA BR OVC003
      TEMPO 0118/0120 1/2SM FG VV002
     FM012000 02007KT 1SM BR OVC004
      TEMPO 0200/0204 1/2SM FG
     FM020400 VRB03KT 1/2SM FG OVC004
     FM021500 36004KT 2SM BR VCSH OVC009=



000
FTUS44 KHGX 011732
TAFGLS
TAF
KGLS 011732Z 0118/0218 13008KT 2SM BR OVC003
      TEMPO 0118/0122 1/2SM FG VV003
     FM012200 06004KT 1/4SM FG OVC004=



000
FTUS44 KHGX 011732
TAFLBX
TAF
KLBX 011732Z 0118/0218 01003KT 4SM BR SCT003 OVC012
     FM012100 10007KT 1SM BR OVC004
     FM020000 03004KT 1/2SM FG OVC003
     FM021500 02007KT 1SM BR OVC004=



000
FTUS44 KHGX 011732
TAFLBX
TAF
KLBX 011732Z 0118/0218 01003KT 4SM BR SCT003 OVC012
     FM012100 10007KT 1SM BR OVC004
     FM020000 03004KT 1/2SM FG OVC003
     FM021500 02007KT 1SM BR OVC004=



000
FTUS44 KHGX 011732
TAFSGR
TAF
KSGR 011732Z 0118/0218 36007KT 3SM -RA BR OVC004
      TEMPO 0118/0121 1SM BR
     FM012100 02007KT 1SM BR OVC004
      TEMPO 0200/0204 1/2SM FG
     FM020400 VRB03KT 1/2SM FG OVC004
     FM021500 36004KT 2SM BR VCSH OVC009=



000
FTUS44 KHGX 011732
TAFCLL
TAF
KCLL 011732Z 0118/0218 35008KT 1SM BR VCSH OVC003
     FM012200 34004KT 2SM BR OVC004
      TEMPO 0200/0204 1/2SM FG
     FM020400 VRB03KT 1/2SM FG OVC004
     FM021500 35004KT 2SM BR VCSH OVC006=



000
FTUS44 KHGX 011732
TAFGLS
TAF
KGLS 011732Z 0118/0218 13008KT 2SM BR OVC003
      TEMPO 0118/0122 1/2SM FG VV003
     FM012200 06004KT 1/4SM FG OVC004=



000
FTUS44 KHGX 011732
TAFHOU
TAF
KHOU 011732Z 0118/0218 04004KT 1SM -RA BR OVC003
      TEMPO 0118/0120 1/2SM FG VV002
     FM012000 02007KT 1SM BR OVC004
      TEMPO 0200/0204 1/2SM FG
     FM020400 VRB03KT 1/2SM FG OVC004
     FM021500 36004KT 2SM BR VCSH OVC009=



000
FTUS44 KHGX 011732
TAFGLS
TAF
KGLS 011732Z 0118/0218 13008KT 2SM BR OVC003
      TEMPO 0118/0122 1/2SM FG VV003
     FM012200 06004KT 1/4SM FG OVC004=



000
FTUS44 KHGX 011732
TAFUTS
TAF
KUTS 011732Z 0118/0218 34005KT 1SM -RA BR OVC002
     FM012200 34004KT 2SM BR OVC004
      TEMPO 0200/0204 1/2SM FG
     FM020400 VRB03KT 1/2SM FG OVC004
     FM021500 35004KT 2SM BR VCSH OVC006=



000
FTUS44 KHGX 011732
TAFLBX
TAF
KLBX 011732Z 0118/0218 01003KT 4SM BR SCT003 OVC012
     FM012100 10007KT 1SM BR OVC004
     FM020000 03004KT 1/2SM FG OVC003
     FM021500 02007KT 1SM BR OVC004=



000
FTUS44 KHGX 011732
TAFIAH
TAF
KIAH 011732Z 0118/0224 03005KT 1SM -RA BR OVC003
     FM012000 02004KT 2SM BR OVC004
      TEMPO 0200/0204 1/2SM FG
     FM020400 VRB03KT 1/2SM FG OVC004
     FM021500 36004KT 2SM BR VCSH OVC009=



000
FTUS44 KHGX 011732
TAFCXO
TAF
KCXO 011732Z 0118/0218 33004KT 1SM -RA BR OVC004
     FM012000 34004KT 2SM BR OVC004
      TEMPO 0200/0204 1/2SM FG
     FM020400 VRB03KT 1/2SM FG OVC004
     FM021500 35004KT 2SM BR VCSH OVC006=



000
FTUS44 KHGX 011732
TAFCXO
TAF
KCXO 011732Z 0118/0218 33004KT 1SM -RA BR OVC004
     FM012000 34004KT 2SM BR OVC004
      TEMPO 0200/0204 1/2SM FG
     FM020400 VRB03KT 1/2SM FG OVC004
     FM021500 35004KT 2SM BR VCSH OVC006=



000
FTUS44 KHGX 011732
TAFGLS
TAF
KGLS 011732Z 0118/0218 13008KT 2SM BR OVC003
      TEMPO 0118/0122 1/2SM FG VV003
     FM012200 06004KT 1/4SM FG OVC004=



000
FTUS44 KHGX 011732
TAFLBX
TAF
KLBX 011732Z 0118/0218 01003KT 4SM BR SCT003 OVC012
     FM012100 10007KT 1SM BR OVC004
     FM020000 03004KT 1/2SM FG OVC003
     FM021500 02007KT 1SM BR OVC004=



000
FTUS44 KHGX 011732
TAFCLL
TAF
KCLL 011732Z 0118/0218 35008KT 1SM BR VCSH OVC003
     FM012200 34004KT 2SM BR OVC004
      TEMPO 0200/0204 1/2SM FG
     FM020400 VRB03KT 1/2SM FG OVC004
     FM021500 35004KT 2SM BR VCSH OVC006=



000
FTUS44 KHGX 011732
TAFSGR
TAF
KSGR 011732Z 0118/0218 36007KT 3SM -RA BR OVC004
      TEMPO 0118/0121 1SM BR
     FM012100 02007KT 1SM BR OVC004
      TEMPO 0200/0204 1/2SM FG
     FM020400 VRB03KT 1/2SM FG OVC004
     FM021500 36004KT 2SM BR VCSH OVC009=



000
FTUS44 KHGX 011732
TAFIAH
TAF
KIAH 011732Z 0118/0224 03005KT 1SM -RA BR OVC003
     FM012000 02004KT 2SM BR OVC004
      TEMPO 0200/0204 1/2SM FG
     FM020400 VRB03KT 1/2SM FG OVC004
     FM021500 36004KT 2SM BR VCSH OVC009=



000
FTUS44 KHGX 011732
TAFUTS
TAF
KUTS 011732Z 0118/0218 34005KT 1SM -RA BR OVC002
     FM012200 34004KT 2SM BR OVC004
      TEMPO 0200/0204 1/2SM FG
     FM020400 VRB03KT 1/2SM FG OVC004
     FM021500 35004KT 2SM BR VCSH OVC006=



000
FTUS44 KHGX 011732
TAFSGR
TAF
KSGR 011732Z 0118/0218 36007KT 3SM -RA BR OVC004
      TEMPO 0118/0121 1SM BR
     FM012100 02007KT 1SM BR OVC004
      TEMPO 0200/0204 1/2SM FG
     FM020400 VRB03KT 1/2SM FG OVC004
     FM021500 36004KT 2SM BR VCSH OVC009=



000
FTUS44 KHGX 011732
TAFIAH
TAF
KIAH 011732Z 0118/0224 03005KT 1SM -RA BR OVC003
     FM012000 02004KT 2SM BR OVC004
      TEMPO 0200/0204 1/2SM FG
     FM020400 VRB03KT 1/2SM FG OVC004
     FM021500 36004KT 2SM BR VCSH OVC009=



000
FTUS44 KHGX 011732
TAFCLL
TAF
KCLL 011732Z 0118/0218 35008KT 1SM BR VCSH OVC003
     FM012200 34004KT 2SM BR OVC004
      TEMPO 0200/0204 1/2SM FG
     FM020400 VRB03KT 1/2SM FG OVC004
     FM021500 35004KT 2SM BR VCSH OVC006=



000
FTUS44 KHGX 011732
TAFUTS
TAF
KUTS 011732Z 0118/0218 34005KT 1SM -RA BR OVC002
     FM012200 34004KT 2SM BR OVC004
      TEMPO 0200/0204 1/2SM FG
     FM020400 VRB03KT 1/2SM FG OVC004
     FM021500 35004KT 2SM BR VCSH OVC006=



000
FTUS44 KHGX 011732
TAFCXO
TAF
KCXO 011732Z 0118/0218 33004KT 1SM -RA BR OVC004
     FM012000 34004KT 2SM BR OVC004
      TEMPO 0200/0204 1/2SM FG
     FM020400 VRB03KT 1/2SM FG OVC004
     FM021500 35004KT 2SM BR VCSH OVC006=



000
FTUS44 KHGX 011732
TAFHOU
TAF
KHOU 011732Z 0118/0218 04004KT 1SM -RA BR OVC003
      TEMPO 0118/0120 1/2SM FG VV002
     FM012000 02007KT 1SM BR OVC004
      TEMPO 0200/0204 1/2SM FG
     FM020400 VRB03KT 1/2SM FG OVC004
     FM021500 36004KT 2SM BR VCSH OVC009=



000
FTUS44 KHGX 011732
TAFUTS
TAF
KUTS 011732Z 0118/0218 34005KT 1SM -RA BR OVC002
     FM012200 34004KT 2SM BR OVC004
      TEMPO 0200/0204 1/2SM FG
     FM020400 VRB03KT 1/2SM FG OVC004
     FM021500 35004KT 2SM BR VCSH OVC006=



000
FTUS44 KHGX 011732
TAFIAH
TAF
KIAH 011732Z 0118/0224 03005KT 1SM -RA BR OVC003
     FM012000 02004KT 2SM BR OVC004
      TEMPO 0200/0204 1/2SM FG
     FM020400 VRB03KT 1/2SM FG OVC004
     FM021500 36004KT 2SM BR VCSH OVC009=



000
FTUS44 KHGX 011732
TAFCLL
TAF
KCLL 011732Z 0118/0218 35008KT 1SM BR VCSH OVC003
     FM012200 34004KT 2SM BR OVC004
      TEMPO 0200/0204 1/2SM FG
     FM020400 VRB03KT 1/2SM FG OVC004
     FM021500 35004KT 2SM BR VCSH OVC006=



000
FTUS44 KHGX 011732
TAFSGR
TAF
KSGR 011732Z 0118/0218 36007KT 3SM -RA BR OVC004
      TEMPO 0118/0121 1SM BR
     FM012100 02007KT 1SM BR OVC004
      TEMPO 0200/0204 1/2SM FG
     FM020400 VRB03KT 1/2SM FG OVC004
     FM021500 36004KT 2SM BR VCSH OVC009=



000
FTUS44 KHGX 011732
TAFCXO
TAF
KCXO 011732Z 0118/0218 33004KT 1SM -RA BR OVC004
     FM012000 34004KT 2SM BR OVC004
      TEMPO 0200/0204 1/2SM FG
     FM020400 VRB03KT 1/2SM FG OVC004
     FM021500 35004KT 2SM BR VCSH OVC006=



000
FTUS44 KHGX 011614 AAB
TAFCLL
TAF AMD
KCLL 011614Z 0116/0212 35009KT 1SM BR VCSH OVC002
     FM012100 36009KT 6SM -RA BR VCSH OVC008
     FM020100 01009KT 4SM BR OVC004
     FM020900 01010KT 3SM BR OVC002=



000
FTUS44 KHGX 011614 AAB
TAFCLL
TAF AMD
KCLL 011614Z 0116/0212 35009KT 1SM BR VCSH OVC002
     FM012100 36009KT 6SM -RA BR VCSH OVC008
     FM020100 01009KT 4SM BR OVC004
     FM020900 01010KT 3SM BR OVC002=



000
FTUS44 KHGX 011613 AAB
TAFLBX
TAF AMD
KLBX 011613Z 0116/0212 02004KT 1/4SM FG VV003
     FM020000 03004KT 1SM BR OVC003
     FM020400 05005KT 1/2SM FG OVC003=



000
FTUS44 KHGX 011613 AAB
TAFLBX
TAF AMD
KLBX 011613Z 0116/0212 02004KT 1/4SM FG VV003
     FM020000 03004KT 1SM BR OVC003
     FM020400 05005KT 1/2SM FG OVC003=



000
FTUS44 KHGX 011612 AAB
TAFGLS
TAF AMD
KGLS 011612Z 0116/0212 14008KT 1/4SM FG VV003
     FM020000 06004KT 1/4SM FG OVC004=



000
FTUS44 KHGX 011612 AAB
TAFGLS
TAF AMD
KGLS 011612Z 0116/0212 14008KT 1/4SM FG VV003
     FM020000 06004KT 1/4SM FG OVC004=



000
FTUS44 KHGX 011612 AAB
TAFGLS
TAF AMD
KGLS 011612Z 0116/0212 14008KT 1/4SM FG VV003
     FM020000 06004KT 1/4SM FG OVC004=



000
FTUS44 KHGX 011612 AAB
TAFGLS
TAF AMD
KGLS 011612Z 0116/0212 14008KT 1/4SM FG VV003
     FM020000 06004KT 1/4SM FG OVC004=



000
FTUS44 KHGX 011453 AAB
TAFCXO
TAF AMD
KCXO 011453Z 0115/0212 01004KT 4SM -RA BR OVC008
      TEMPO 0115/0117 1SM RA BR BKN004 OVC012
     FM012100 03006KT 6SM -RA BR VCSH OVC009
     FM020100 02004KT 4SM -RA BR VCSH OVC004
     FM020900 01005KT 2SM -RA BR VCSH OVC002=



000
FTUS44 KHGX 011453 AAB
TAFCXO
TAF AMD
KCXO 011453Z 0115/0212 01004KT 4SM -RA BR OVC008
      TEMPO 0115/0117 1SM RA BR BKN004 OVC012
     FM012100 03006KT 6SM -RA BR VCSH OVC009
     FM020100 02004KT 4SM -RA BR VCSH OVC004
     FM020900 01005KT 2SM -RA BR VCSH OVC002=



000
FTUS44 KHGX 011453 AAB
TAFCXO
TAF AMD
KCXO 011453Z 0115/0212 01004KT 4SM -RA BR OVC008
      TEMPO 0115/0117 1SM RA BR BKN004 OVC012
     FM012100 03006KT 6SM -RA BR VCSH OVC009
     FM020100 02004KT 4SM -RA BR VCSH OVC004
     FM020900 01005KT 2SM -RA BR VCSH OVC002=



000
FTUS44 KHGX 011453 AAB
TAFCXO
TAF AMD
KCXO 011453Z 0115/0212 01004KT 4SM -RA BR OVC008
      TEMPO 0115/0117 1SM RA BR BKN004 OVC012
     FM012100 03006KT 6SM -RA BR VCSH OVC009
     FM020100 02004KT 4SM -RA BR VCSH OVC004
     FM020900 01005KT 2SM -RA BR VCSH OVC002=



000
FTUS44 KHGX 011452 AAB
TAFIAH
TAF AMD
KIAH 011452Z 0115/0218 04007KT 2SM -RA BR OVC003
     FM011700 04004KT 2SM -RA BR VCSH OVC004
     FM012100 02004KT 6SM -RA BR VCSH OVC009
     FM020300 02005KT 4SM -RA BR VCSH OVC004
     FM020600 02005KT 3SM -DZ BR VCSH OVC003
     FM021500 02006KT 5SM BR VCSH OVC009=



000
FTUS44 KHGX 011452 AAA
TAFHOU
TAF AMD
KHOU 011452Z 0115/0212 05005KT 3SM -RA BR VCSH OVC003
      TEMPO 0115/0116 1SM RA BR
     FM011700 10007KT 4SM -DZ BR VCSH OVC007
     FM012100 09007KT 6SM -RA BR VCSH OVC009
     FM020300 06005KT 2SM -RA BR VCSH OVC004
     FM020600 01006KT 2SM -DZ BR VCSH OVC003=



000
FTUS44 KHGX 011452 AAA
TAFHOU
TAF AMD
KHOU 011452Z 0115/0212 05005KT 3SM -RA BR VCSH OVC003
      TEMPO 0115/0116 1SM RA BR
     FM011700 10007KT 4SM -DZ BR VCSH OVC007
     FM012100 09007KT 6SM -RA BR VCSH OVC009
     FM020300 06005KT 2SM -RA BR VCSH OVC004
     FM020600 01006KT 2SM -DZ BR VCSH OVC003=



000
FTUS44 KHGX 011452 AAB
TAFIAH
TAF AMD
KIAH 011452Z 0115/0218 04007KT 2SM -RA BR OVC003
     FM011700 04004KT 2SM -RA BR VCSH OVC004
     FM012100 02004KT 6SM -RA BR VCSH OVC009
     FM020300 02005KT 4SM -RA BR VCSH OVC004
     FM020600 02005KT 3SM -DZ BR VCSH OVC003
     FM021500 02006KT 5SM BR VCSH OVC009=



000
FTUS44 KHGX 011452 AAB
TAFIAH
TAF AMD
KIAH 011452Z 0115/0218 04007KT 2SM -RA BR OVC003
     FM011700 04004KT 2SM -RA BR VCSH OVC004
     FM012100 02004KT 6SM -RA BR VCSH OVC009
     FM020300 02005KT 4SM -RA BR VCSH OVC004
     FM020600 02005KT 3SM -DZ BR VCSH OVC003
     FM021500 02006KT 5SM BR VCSH OVC009=



000
FTUS44 KHGX 011452 AAA
TAFHOU
TAF AMD
KHOU 011452Z 0115/0212 05005KT 3SM -RA BR VCSH OVC003
      TEMPO 0115/0116 1SM RA BR
     FM011700 10007KT 4SM -DZ BR VCSH OVC007
     FM012100 09007KT 6SM -RA BR VCSH OVC009
     FM020300 06005KT 2SM -RA BR VCSH OVC004
     FM020600 01006KT 2SM -DZ BR VCSH OVC003=



000
FTUS44 KHGX 011429 AAA
TAFIAH
TAF AMD
KIAH 011429Z 0114/0218 02005KT 5SM -RA BR OVC005
      TEMPO 0114/0115 1/4SM FG OVC003
     FM011700 04004KT 2SM -RA BR VCSH OVC004
     FM012100 02004KT 6SM -RA BR VCSH OVC009
     FM020300 02005KT 4SM -RA BR VCSH OVC004
     FM020600 02005KT 3SM -DZ BR VCSH OVC003
     FM021500 02006KT 5SM BR VCSH OVC009=



000
FTUS44 KHGX 011429 AAA
TAFIAH
TAF AMD
KIAH 011429Z 0114/0218 02005KT 5SM -RA BR OVC005
      TEMPO 0114/0115 1/4SM FG OVC003
     FM011700 04004KT 2SM -RA BR VCSH OVC004
     FM012100 02004KT 6SM -RA BR VCSH OVC009
     FM020300 02005KT 4SM -RA BR VCSH OVC004
     FM020600 02005KT 3SM -DZ BR VCSH OVC003
     FM021500 02006KT 5SM BR VCSH OVC009=



000
FTUS44 KHGX 011427 AAA
TAFLBX
TAF AMD
KLBX 011427Z 0114/0212 06003KT P6SM VCSH OVC004
     FM011700 07007KT 4SM -DZ BR VCSH OVC006
     FM012000 09009KT 5SM -RA BR VCSH OVC007
     FM020100 07006KT 2SM -RA BR VCSH OVC005
     FM020300 06006KT 1/2SM -RA FG VCSH OVC004
     FM020600 01008KT 1/4SM -RA FG VCSH OVC002=



000
FTUS44 KHGX 011427 AAA
TAFLBX
TAF AMD
KLBX 011427Z 0114/0212 06003KT P6SM VCSH OVC004
     FM011700 07007KT 4SM -DZ BR VCSH OVC006
     FM012000 09009KT 5SM -RA BR VCSH OVC007
     FM020100 07006KT 2SM -RA BR VCSH OVC005
     FM020300 06006KT 1/2SM -RA FG VCSH OVC004
     FM020600 01008KT 1/4SM -RA FG VCSH OVC002=



000
FTUS44 KHGX 011426 AAA
TAFGLS
TAF AMD
KGLS 011426Z 0114/0212 12007KT 1SM BR VCSH OVC002
      TEMPO 0114/0116 2SM SHRA
     FM011800 06010KT 4SM -DZ BR VCSH OVC007
     FM012200 11010KT 2SM -RA BR VCSH OVC004
     FM020200 08009KT 1/2SM -RA FG VCSH OVC002=



000
FTUS44 KHGX 011426 AAA
TAFGLS
TAF AMD
KGLS 011426Z 0114/0212 12007KT 1SM BR VCSH OVC002
      TEMPO 0114/0116 2SM SHRA
     FM011800 06010KT 4SM -DZ BR VCSH OVC007
     FM012200 11010KT 2SM -RA BR VCSH OVC004
     FM020200 08009KT 1/2SM -RA FG VCSH OVC002=



000
FTUS44 KHGX 011403 CCA
TAFCLL
TAF COR
KCLL 011403Z 0114/0212 01010KT 2SM BR VCSH OVC003
      TEMPO 0114/0116 1/2SM FG OVC002
     FM011600 36010KT 4SM -SHRA BR VCSH OVC004
     FM012100 36009KT 6SM -RA BR VCSH OVC008
     FM020100 01009KT 4SM BR OVC004
     FM020900 01010KT 3SM BR OVC002=



000
FTUS44 KHGX 011403 AAA
TAFUTS
TAF AMD
KUTS 011403Z 0114/0212 35003KT 1SM BR OVC002
      TEMPO 0114/0116 1/2SM FG
     FM011700 05004KT 5SM -RA BR OVC007
     FM012100 03006KT 6SM -RA BR VCSH OVC009
     FM020100 01004KT 4SM -RA BR VCSH OVC004
     FM020900 01006KT 2SM -RA BR VCSH OVC002=



000
FTUS44 KHGX 011403 AAA
TAFUTS
TAF AMD
KUTS 011403Z 0114/0212 35003KT 1SM BR OVC002
      TEMPO 0114/0116 1/2SM FG
     FM011700 05004KT 5SM -RA BR OVC007
     FM012100 03006KT 6SM -RA BR VCSH OVC009
     FM020100 01004KT 4SM -RA BR VCSH OVC004
     FM020900 01006KT 2SM -RA BR VCSH OVC002=



000
FTUS44 KHGX 011403 CCA
TAFCLL
TAF COR
KCLL 011403Z 0114/0212 01010KT 2SM BR VCSH OVC003
      TEMPO 0114/0116 1/2SM FG OVC002
     FM011600 36010KT 4SM -SHRA BR VCSH OVC004
     FM012100 36009KT 6SM -RA BR VCSH OVC008
     FM020100 01009KT 4SM BR OVC004
     FM020900 01010KT 3SM BR OVC002=



000
FTUS44 KHGX 011402 AAA
TAFCLL
TAF AMD
KCLL 011402Z 0114/0212 01010KT 2SM BR VCSH OVC003
      TEMPO 0114/0116 1/4SM FG OVC002
     FM011600 36010KT 4SM -SHRA BR VCSH OVC004
     FM012100 36009KT 6SM -RA BR VCSH OVC008
     FM020100 01009KT 4SM BR OVC004
     FM020900 01010KT 3SM BR OVC002=



000
FTUS44 KHGX 011402 AAA
TAFCLL
TAF AMD
KCLL 011402Z 0114/0212 01010KT 2SM BR VCSH OVC003
      TEMPO 0114/0116 1/4SM FG OVC002
     FM011600 36010KT 4SM -SHRA BR VCSH OVC004
     FM012100 36009KT 6SM -RA BR VCSH OVC008
     FM020100 01009KT 4SM BR OVC004
     FM020900 01010KT 3SM BR OVC002=



000
FTUS44 KHGX 011402 AAA
TAFCLL
TAF AMD
KCLL 011402Z 0114/0212 01010KT 2SM BR VCSH OVC003
      TEMPO 0114/0116 1/4SM FG OVC002
     FM011600 36010KT 4SM -SHRA BR VCSH OVC004
     FM012100 36009KT 6SM -RA BR VCSH OVC008
     FM020100 01009KT 4SM BR OVC004
     FM020900 01010KT 3SM BR OVC002=



000
FTUS44 KHGX 011402 AAA
TAFCLL
TAF AMD
KCLL 011402Z 0114/0212 01010KT 2SM BR VCSH OVC003
      TEMPO 0114/0116 1/4SM FG OVC002
     FM011600 36010KT 4SM -SHRA BR VCSH OVC004
     FM012100 36009KT 6SM -RA BR VCSH OVC008
     FM020100 01009KT 4SM BR OVC004
     FM020900 01010KT 3SM BR OVC002=



000
FTUS44 KHGX 011344 AAA
TAFCXO
TAF AMD
KCXO 011344Z 0114/0212 01004KT 4SM BR VCSH OVC008
      TEMPO 0114/0117 1SM -SHRA BR SCT004 OVC012
     FM012100 03006KT 6SM -RA BR VCSH OVC009
     FM020100 02004KT 4SM -RA BR VCSH OVC004
     FM020900 01005KT 2SM -RA BR VCSH OVC002=



000
FTUS44 KHGX 011145 RRA
TAFCXO
TAF
KCXO 011145Z 0112/0212 01004KT P6SM VCSH OVC008
      TEMPO 0112/0115 2SM SHRA BR SCT004 OVC012
     FM012100 03006KT 6SM -RA BR VCSH OVC009
     FM020100 02004KT 4SM -RA BR VCSH OVC004
     FM020900 01005KT 2SM -RA BR VCSH OVC002=



000
FTUS44 KHGX 011145 RRA
TAFUTS
TAF
KUTS 011145Z 0112/0212 35003KT 1SM BR OVC002
     FM011500 04003KT 3SM -DZ BR VCSH OVC004
     FM011700 05004KT 5SM -RA BR OVC007
     FM012100 03006KT 6SM -RA BR VCSH OVC009
     FM020100 01004KT 4SM -RA BR VCSH OVC004
     FM020900 01006KT 2SM -RA BR VCSH OVC002=



000
FTUS44 KHGX 011145 RRA
TAFCXO
TAF
KCXO 011145Z 0112/0212 01004KT P6SM VCSH OVC008
      TEMPO 0112/0115 2SM SHRA BR SCT004 OVC012
     FM012100 03006KT 6SM -RA BR VCSH OVC009
     FM020100 02004KT 4SM -RA BR VCSH OVC004
     FM020900 01005KT 2SM -RA BR VCSH OVC002=



000
FTUS44 KHGX 011145 RRA
TAFUTS
TAF
KUTS 011145Z 0112/0212 35003KT 1SM BR OVC002
     FM011500 04003KT 3SM -DZ BR VCSH OVC004
     FM011700 05004KT 5SM -RA BR OVC007
     FM012100 03006KT 6SM -RA BR VCSH OVC009
     FM020100 01004KT 4SM -RA BR VCSH OVC004
     FM020900 01006KT 2SM -RA BR VCSH OVC002=



000
FTUS44 KHGX 011145 RRA
TAFCLL
TAF
KCLL 011145Z 0112/0212 01010KT 2SM -RA BR VCSH OVC003
     FM011500 36010KT 4SM BR VCSH OVC004
     FM012100 36009KT 6SM -RA BR VCSH OVC008
     FM020100 01009KT 4SM BR OVC004
     FM020900 01010KT 3SM BR OVC002=



000
FTUS44 KHGX 011145 RRA
TAFCLL
TAF
KCLL 011145Z 0112/0212 01010KT 2SM -RA BR VCSH OVC003
     FM011500 36010KT 4SM BR VCSH OVC004
     FM012100 36009KT 6SM -RA BR VCSH OVC008
     FM020100 01009KT 4SM BR OVC004
     FM020900 01010KT 3SM BR OVC002=



000
FTUS44 KHGX 011140
TAFIAH
TAF
KIAH 011140Z 0112/0218 02005KT 5SM -DZ BR VCSH OVC005
      TEMPO 0112/0115 3SM SHRA BR
     FM011700 04004KT 2SM -RA BR VCSH OVC004
     FM012100 02004KT 6SM -RA BR VCSH OVC009
     FM020300 02005KT 4SM -RA BR VCSH OVC004
     FM020600 02005KT 3SM -DZ BR VCSH OVC003
     FM021500 02006KT 5SM BR VCSH OVC009=



000
FTUS44 KHGX 011140
TAFLBX
TAF
KLBX 011140Z 0112/0212 08008KT 1 1/2SM BR VCSH OVC002
      TEMPO 0112/0115 2SM SHRA BR OVC003
     FM011700 07007KT 4SM -DZ BR VCSH OVC006
     FM012000 09009KT 5SM -RA BR VCSH OVC007
     FM020100 07006KT 2SM -RA BR VCSH OVC005
     FM020300 06006KT 1/2SM -RA FG VCSH OVC004
     FM020600 01008KT 1/4SM -RA FG VCSH OVC002=



000
FTUS44 KHGX 011140
TAFUTS
TAF
KUTS 011140Z 0112/0212 35003KT 1SM BR OVC002
     FM011500 04003KT 3SM -RA BR VCSH OVC004
     FM011700 05004KT 5SM -DZ BR OVC007
     FM012100 03006KT 6SM BR SCT004 OVC009
     FM020100 03004KT 4SM BR OVC004=



000
FTUS44 KHGX 011140
TAFHOU
TAF
KHOU 011140Z 0112/0212 09007KT 4SM -DZ BR VCSH OVC003
      TEMPO 0112/0116 1SM SHRA BR
     FM011700 10007KT 4SM -DZ BR VCSH OVC007
     FM012100 09007KT 6SM -RA BR VCSH OVC009
     FM020300 06005KT 2SM -RA BR VCSH OVC004
     FM020600 01006KT 2SM -DZ BR VCSH OVC003=



000
FTUS44 KHGX 011140
TAFCLL
TAF
KCLL 011140Z 0112/0212 01010KT 2SM -RA BR VCSH OVC003
     FM011500 36010KT 4SM BR VCSH OVC004
     FM012100 36009KT 6SM -RA BR VCSH OVC008
     FM020100 01009KT 4SM BR OVC004
     FM020900 01010KT 4SM BR OVC002=



000
FTUS44 KHGX 011140
TAFCXO
TAF
KCXO 011140Z 0112/0212 01004KT P6SM VCSH OVC008
      TEMPO 0112/0115 2SM SHRA BR SCT004 OVC012
     FM012000 03006KT 5SM BR SCT004 OVC009
     FM020100 VRB04KT 4SM BR OVC006=



000
FTUS44 KHGX 011140
TAFGLS
TAF
KGLS 011140Z 0112/0212 09012KT 2SM BR VCSH OVC002
      TEMPO 0112/0116 2SM SHRA
     FM011800 06010KT 4SM -DZ BR VCSH OVC007
     FM012200 11010KT 2SM -RA BR VCSH OVC004
     FM020200 08009KT 1/2SM -RA FG VCSH OVC002=



000
FTUS44 KHGX 011140
TAFSGR
TAF
KSGR 011140Z 0112/0212 03005KT 1SM -RA BR VCSH OVC002
      TEMPO 0112/0116 2SM SHRA BR
     FM011700 09008KT 4SM -DZ BR VCSH OVC007
     FM012100 07006KT 6SM -RA BR VCSH OVC009
     FM020300 06005KT 2SM -RA BR VCSH OVC004
     FM020600 01006KT 2SM -DZ BR VCSH OVC003=



000
FTUS44 KHGX 011140
TAFHOU
TAF
KHOU 011140Z 0112/0212 09007KT 4SM -DZ BR VCSH OVC003
      TEMPO 0112/0116 1SM SHRA BR
     FM011700 10007KT 4SM -DZ BR VCSH OVC007
     FM012100 09007KT 6SM -RA BR VCSH OVC009
     FM020300 06005KT 2SM -RA BR VCSH OVC004
     FM020600 01006KT 2SM -DZ BR VCSH OVC003=



000
FTUS44 KHGX 011140
TAFCXO
TAF
KCXO 011140Z 0112/0212 01004KT P6SM VCSH OVC008
      TEMPO 0112/0115 2SM SHRA BR SCT004 OVC012
     FM012000 03006KT 5SM BR SCT004 OVC009
     FM020100 VRB04KT 4SM BR OVC006=



000
FTUS44 KHGX 011140
TAFUTS
TAF
KUTS 011140Z 0112/0212 35003KT 1SM BR OVC002
     FM011500 04003KT 3SM -RA BR VCSH OVC004
     FM011700 05004KT 5SM -DZ BR OVC007
     FM012100 03006KT 6SM BR SCT004 OVC009
     FM020100 03004KT 4SM BR OVC004=



000
FTUS44 KHGX 011140
TAFCLL
TAF
KCLL 011140Z 0112/0212 01010KT 2SM -RA BR VCSH OVC003
     FM011500 36010KT 4SM BR VCSH OVC004
     FM012100 36009KT 6SM -RA BR VCSH OVC008
     FM020100 01009KT 4SM BR OVC004
     FM020900 01010KT 4SM BR OVC002=



000
FTUS44 KHGX 011140
TAFGLS
TAF
KGLS 011140Z 0112/0212 09012KT 2SM BR VCSH OVC002
      TEMPO 0112/0116 2SM SHRA
     FM011800 06010KT 4SM -DZ BR VCSH OVC007
     FM012200 11010KT 2SM -RA BR VCSH OVC004
     FM020200 08009KT 1/2SM -RA FG VCSH OVC002=



000
FTUS44 KHGX 011140
TAFSGR
TAF
KSGR 011140Z 0112/0212 03005KT 1SM -RA BR VCSH OVC002
      TEMPO 0112/0116 2SM SHRA BR
     FM011700 09008KT 4SM -DZ BR VCSH OVC007
     FM012100 07006KT 6SM -RA BR VCSH OVC009
     FM020300 06005KT 2SM -RA BR VCSH OVC004
     FM020600 01006KT 2SM -DZ BR VCSH OVC003=



000
FTUS44 KHGX 011140
TAFIAH
TAF
KIAH 011140Z 0112/0218 02005KT 5SM -DZ BR VCSH OVC005
      TEMPO 0112/0115 3SM SHRA BR
     FM011700 04004KT 2SM -RA BR VCSH OVC004
     FM012100 02004KT 6SM -RA BR VCSH OVC009
     FM020300 02005KT 4SM -RA BR VCSH OVC004
     FM020600 02005KT 3SM -DZ BR VCSH OVC003
     FM021500 02006KT 5SM BR VCSH OVC009=



000
FTUS44 KHGX 011140
TAFLBX
TAF
KLBX 011140Z 0112/0212 08008KT 1 1/2SM BR VCSH OVC002
      TEMPO 0112/0115 2SM SHRA BR OVC003
     FM011700 07007KT 4SM -DZ BR VCSH OVC006
     FM012000 09009KT 5SM -RA BR VCSH OVC007
     FM020100 07006KT 2SM -RA BR VCSH OVC005
     FM020300 06006KT 1/2SM -RA FG VCSH OVC004
     FM020600 01008KT 1/4SM -RA FG VCSH OVC002=



000
FTUS44 KHGX 010955 AAB
TAFUTS
TAF AMD
KUTS 010955Z 0110/0206 01003KT 1SM BR OVC002
     FM011500 04003KT 3SM -RA BR VCSH OVC004
     FM011700 05004KT 5SM -DZ BR OVC007
     FM012100 03006KT 6SM BR SCT004 OVC009
     FM020100 03004KT 4SM BR OVC004=



000
FTUS44 KHGX 010955 AAB
TAFUTS
TAF AMD
KUTS 010955Z 0110/0206 01003KT 1SM BR OVC002
     FM011500 04003KT 3SM -RA BR VCSH OVC004
     FM011700 05004KT 5SM -DZ BR OVC007
     FM012100 03006KT 6SM BR SCT004 OVC009
     FM020100 03004KT 4SM BR OVC004=



000
FTUS44 KHGX 010955 AAB
TAFUTS
TAF AMD
KUTS 010955Z 0110/0206 01003KT 1SM BR OVC002
     FM011500 04003KT 3SM -RA BR VCSH OVC004
     FM011700 05004KT 5SM -DZ BR OVC007
     FM012100 03006KT 6SM BR SCT004 OVC009
     FM020100 03004KT 4SM BR OVC004=



000
FTUS44 KHGX 010931 AAA
TAFUTS
TAF AMD
KUTS 010931Z 0110/0206 01004KT 2SM BR OVC003
     FM011400 04003KT 3SM -RA BR VCSH OVC004
     FM011700 05004KT 5SM -DZ BR OVC007
     FM012100 03006KT 6SM BR SCT004 OVC009
     FM020100 03004KT 4SM BR OVC004=



000
FTUS44 KHGX 010931 AAA
TAFUTS
TAF AMD
KUTS 010931Z 0110/0206 01004KT 2SM BR OVC003
     FM011400 04003KT 3SM -RA BR VCSH OVC004
     FM011700 05004KT 5SM -DZ BR OVC007
     FM012100 03006KT 6SM BR SCT004 OVC009
     FM020100 03004KT 4SM BR OVC004=



000
FTUS44 KHGX 010919 AAA
TAFHOU
TAF AMD
KHOU 010919Z 0109/0206 10006KT 4SM -DZ BR VCSH OVC004
     FM011000 06003KT 3SM -DZ BR VCSH OVC004
      TEMPO 0112/0116 1SM SHRA BR
     FM011700 10007KT 4SM -DZ BR VCSH OVC007
     FM012100 09007KT 6SM BR SCT004 OVC009
     FM020300 06005KT 2SM BR OVC003=



000
FTUS44 KHGX 010919 AAA
TAFIAH
TAF AMD
KIAH 010919Z 0109/0212 04004KT 1SM -DZ BR VCSH OVC005
      TEMPO 0111/0115 3SM SHRA BR
     FM011700 05004KT 4SM -DZ BR VCSH OVC007
     FM012100 05006KT 6SM BR SCT004 OVC009
     FM020300 05005KT 2SM BR OVC003=



000
FTUS44 KHGX 010919 AAA
TAFHOU
TAF AMD
KHOU 010919Z 0109/0206 10006KT 4SM -DZ BR VCSH OVC004
     FM011000 06003KT 3SM -DZ BR VCSH OVC004
      TEMPO 0112/0116 1SM SHRA BR
     FM011700 10007KT 4SM -DZ BR VCSH OVC007
     FM012100 09007KT 6SM BR SCT004 OVC009
     FM020300 06005KT 2SM BR OVC003=



000
FTUS44 KHGX 010919 AAA
TAFIAH
TAF AMD
KIAH 010919Z 0109/0212 04004KT 1SM -DZ BR VCSH OVC005
      TEMPO 0111/0115 3SM SHRA BR
     FM011700 05004KT 4SM -DZ BR VCSH OVC007
     FM012100 05006KT 6SM BR SCT004 OVC009
     FM020300 05005KT 2SM BR OVC003=



000
FTUS44 KHGX 010919 AAA
TAFHOU
TAF AMD
KHOU 010919Z 0109/0206 10006KT 4SM -DZ BR VCSH OVC004
     FM011000 06003KT 3SM -DZ BR VCSH OVC004
      TEMPO 0112/0116 1SM SHRA BR
     FM011700 10007KT 4SM -DZ BR VCSH OVC007
     FM012100 09007KT 6SM BR SCT004 OVC009
     FM020300 06005KT 2SM BR OVC003=



000
FTUS44 KHGX 010919 AAA
TAFHOU
TAF AMD
KHOU 010919Z 0109/0206 10006KT 4SM -DZ BR VCSH OVC004
     FM011000 06003KT 3SM -DZ BR VCSH OVC004
      TEMPO 0112/0116 1SM SHRA BR
     FM011700 10007KT 4SM -DZ BR VCSH OVC007
     FM012100 09007KT 6SM BR SCT004 OVC009
     FM020300 06005KT 2SM BR OVC003=



000
FTUS44 KHGX 010919 AAA
TAFIAH
TAF AMD
KIAH 010919Z 0109/0212 04004KT 1SM -DZ BR VCSH OVC005
      TEMPO 0111/0115 3SM SHRA BR
     FM011700 05004KT 4SM -DZ BR VCSH OVC007
     FM012100 05006KT 6SM BR SCT004 OVC009
     FM020300 05005KT 2SM BR OVC003=



000
FTUS44 KHGX 010919 AAA
TAFIAH
TAF AMD
KIAH 010919Z 0109/0212 04004KT 1SM -DZ BR VCSH OVC005
      TEMPO 0111/0115 3SM SHRA BR
     FM011700 05004KT 4SM -DZ BR VCSH OVC007
     FM012100 05006KT 6SM BR SCT004 OVC009
     FM020300 05005KT 2SM BR OVC003=



000
FTUS44 KHGX 010551 AAA
TAFCLL
TAF AMD
KCLL 010551Z 0106/0206 01006KT 6SM -DZ BR VCSH OVC015
     FM010730 01007KT 4SM -DZ BR VCSH OVC005
     FM011200 02006KT 2SM -DZ BR VCSH OVC003
     FM012100 03007KT 6SM BR VCSH SCT004 OVC009
     FM020100 03005KT 4SM BR OVC004=



000
FTUS44 KHGX 010551 AAA
TAFCLL
TAF AMD
KCLL 010551Z 0106/0206 01006KT 6SM -DZ BR VCSH OVC015
     FM010730 01007KT 4SM -DZ BR VCSH OVC005
     FM011200 02006KT 2SM -DZ BR VCSH OVC003
     FM012100 03007KT 6SM BR VCSH SCT004 OVC009
     FM020100 03005KT 4SM BR OVC004=



000
FTUS44 KHGX 010551 AAA
TAFCLL
TAF AMD
KCLL 010551Z 0106/0206 01006KT 6SM -DZ BR VCSH OVC015
     FM010730 01007KT 4SM -DZ BR VCSH OVC005
     FM011200 02006KT 2SM -DZ BR VCSH OVC003
     FM012100 03007KT 6SM BR VCSH SCT004 OVC009
     FM020100 03005KT 4SM BR OVC004=



000
FTUS44 KHGX 010551 AAA
TAFCLL
TAF AMD
KCLL 010551Z 0106/0206 01006KT 6SM -DZ BR VCSH OVC015
     FM010730 01007KT 4SM -DZ BR VCSH OVC005
     FM011200 02006KT 2SM -DZ BR VCSH OVC003
     FM012100 03007KT 6SM BR VCSH SCT004 OVC009
     FM020100 03005KT 4SM BR OVC004=



000
FTUS44 KHGX 010533
TAFCLL
TAF
KCLL 010533Z 0106/0206 01006KT 6SM -DZ BR OVC015
     FM010900 01007KT 4SM -DZ BR VCSH OVC007
     FM011200 02006KT 2SM -DZ BR VCSH OVC004
     FM012100 03007KT 6SM BR VCSH SCT004 OVC009
     FM020100 03005KT 4SM BR OVC004=



000
FTUS44 KHGX 010533
TAFUTS
TAF
KUTS 010533Z 0106/0206 VRB04KT 6SM -DZ BR OVC015
     FM011000 04003KT 4SM -DZ BR OVC007
     FM011200 04003KT 4SM -RA BR VCSH OVC004
     FM011700 05004KT 4SM -DZ BR OVC007
     FM012100 03006KT 6SM BR SCT004 OVC009
     FM020100 03004KT 4SM BR OVC004=



000
FTUS44 KHGX 010533
TAFCXO
TAF
KCXO 010533Z 0106/0206 VRB04KT 6SM -DZ BR OVC015
     FM010800 VRB04KT 5SM -DZ OVC009
     FM011000 VRB03KT 4SM -DZ BR VCSH OVC007
     FM011200 04003KT 3SM -DZ BR VCSH OVC004
      TEMPO 0112/0115 2SM SHRA BR SCT004 OVC012
     FM012000 03006KT 5SM BR SCT004 OVC009
     FM020100 VRB04KT 4SM BR OVC006=



000
FTUS44 KHGX 010533
TAFGLS
TAF
KGLS 010533Z 0106/0206 07011KT 6SM -DZ BR OVC005
     FM010800 07011KT 3SM -DZ BR VCSH OVC004
      TEMPO 0112/0116 2SM SHRA
     FM011800 06010KT 4SM -DZ BR VCSH OVC007
     FM012200 11010KT 2SM BR OVC002
     FM020200 08009KT 1/2SM FG OVC002=



000
FTUS44 KHGX 010533
TAFHOU
TAF
KHOU 010533Z 0106/0206 08009KT 4SM -DZ BR OVC009
     FM010800 07003KT 2SM -DZ BR VCSH OVC007
     FM011000 06003KT 4SM -DZ BR VCSH OVC004
      TEMPO 0112/0116 2SM SHRA BR
     FM011700 10007KT 4SM -DZ BR VCSH OVC007
     FM012100 09007KT 6SM BR SCT004 OVC009
     FM020300 06005KT 2SM BR OVC003=



000
FTUS44 KHGX 010533
TAFIAH
TAF
KIAH 010533Z 0106/0212 05006KT 5SM -DZ BR OVC015
     FM010800 04005KT 5SM -DZ BR VCSH OVC009
     FM011100 04003KT 4SM -DZ BR VCSH OVC004
      TEMPO 0112/0116 2SM SHRA BR
     FM011700 05004KT 4SM -DZ BR VCSH OVC007
     FM012100 05006KT 6SM BR SCT004 OVC009
     FM020300 05005KT 2SM BR OVC003=



000
FTUS44 KHGX 010533
TAFSGR
TAF
KSGR 010533Z 0106/0206 09008KT 2SM -DZ BR VCSH OVC006
     FM010800 06006KT 4SM -DZ BR VCSH OVC004
      TEMPO 0112/0116 2SM SHRA BR
     FM011700 09008KT 4SM -DZ BR VCSH OVC007
     FM012100 07006KT 6SM BR SCT004 OVC009
     FM020300 06005KT 2SM BR OVC003=



000
FTUS44 KHGX 010533
TAFIAH
TAF
KIAH 010533Z 0106/0212 05006KT 5SM -DZ BR OVC015
     FM010800 04005KT 5SM -DZ BR VCSH OVC009
     FM011100 04003KT 4SM -DZ BR VCSH OVC004
      TEMPO 0112/0116 2SM SHRA BR
     FM011700 05004KT 4SM -DZ BR VCSH OVC007
     FM012100 05006KT 6SM BR SCT004 OVC009
     FM020300 05005KT 2SM BR OVC003=



000
FTUS44 KHGX 010533
TAFCXO
TAF
KCXO 010533Z 0106/0206 VRB04KT 6SM -DZ BR OVC015
     FM010800 VRB04KT 5SM -DZ OVC009
     FM011000 VRB03KT 4SM -DZ BR VCSH OVC007
     FM011200 04003KT 3SM -DZ BR VCSH OVC004
      TEMPO 0112/0115 2SM SHRA BR SCT004 OVC012
     FM012000 03006KT 5SM BR SCT004 OVC009
     FM020100 VRB04KT 4SM BR OVC006=



000
FTUS44 KHGX 010533
TAFLBX
TAF
KLBX 010533Z 0106/0206 08011KT 1 1/2SM -DZ BR VCSH OVC004
      TEMPO 0111/0115 2SM SHRA BR OVC003
     FM011700 07007KT 4SM -DZ BR VCSH OVC006
     FM012000 09009KT 5SM BR OVC007
     FM020100 07006KT 2SM BR OVC002=



000
FTUS44 KHGX 010533
TAFGLS
TAF
KGLS 010533Z 0106/0206 07011KT 6SM -DZ BR OVC005
     FM010800 07011KT 3SM -DZ BR VCSH OVC004
      TEMPO 0112/0116 2SM SHRA
     FM011800 06010KT 4SM -DZ BR VCSH OVC007
     FM012200 11010KT 2SM BR OVC002
     FM020200 08009KT 1/2SM FG OVC002=



000
FTUS44 KHGX 010533
TAFCLL
TAF
KCLL 010533Z 0106/0206 01006KT 6SM -DZ BR OVC015
     FM010900 01007KT 4SM -DZ BR VCSH OVC007
     FM011200 02006KT 2SM -DZ BR VCSH OVC004
     FM012100 03007KT 6SM BR VCSH SCT004 OVC009
     FM020100 03005KT 4SM BR OVC004=



000
FTUS44 KHGX 010533
TAFCLL
TAF
KCLL 010533Z 0106/0206 01006KT 6SM -DZ BR OVC015
     FM010900 01007KT 4SM -DZ BR VCSH OVC007
     FM011200 02006KT 2SM -DZ BR VCSH OVC004
     FM012100 03007KT 6SM BR VCSH SCT004 OVC009
     FM020100 03005KT 4SM BR OVC004=



000
FTUS44 KHGX 010533
TAFSGR
TAF
KSGR 010533Z 0106/0206 09008KT 2SM -DZ BR VCSH OVC006
     FM010800 06006KT 4SM -DZ BR VCSH OVC004
      TEMPO 0112/0116 2SM SHRA BR
     FM011700 09008KT 4SM -DZ BR VCSH OVC007
     FM012100 07006KT 6SM BR SCT004 OVC009
     FM020300 06005KT 2SM BR OVC003=



000
FTUS44 KHGX 010533
TAFUTS
TAF
KUTS 010533Z 0106/0206 VRB04KT 6SM -DZ BR OVC015
     FM011000 04003KT 4SM -DZ BR OVC007
     FM011200 04003KT 4SM -RA BR VCSH OVC004
     FM011700 05004KT 4SM -DZ BR OVC007
     FM012100 03006KT 6SM BR SCT004 OVC009
     FM020100 03004KT 4SM BR OVC004=



000
FTUS44 KHGX 010533
TAFLBX
TAF
KLBX 010533Z 0106/0206 08011KT 1 1/2SM -DZ BR VCSH OVC004
      TEMPO 0111/0115 2SM SHRA BR OVC003
     FM011700 07007KT 4SM -DZ BR VCSH OVC006
     FM012000 09009KT 5SM BR OVC007
     FM020100 07006KT 2SM BR OVC002=



000
FTUS44 KHGX 010533
TAFUTS
TAF
KUTS 010533Z 0106/0206 VRB04KT 6SM -DZ BR OVC015
     FM011000 04003KT 4SM -DZ BR OVC007
     FM011200 04003KT 4SM -RA BR VCSH OVC004
     FM011700 05004KT 4SM -DZ BR OVC007
     FM012100 03006KT 6SM BR SCT004 OVC009
     FM020100 03004KT 4SM BR OVC004=



000
FTUS44 KHGX 010533
TAFCXO
TAF
KCXO 010533Z 0106/0206 VRB04KT 6SM -DZ BR OVC015
     FM010800 VRB04KT 5SM -DZ OVC009
     FM011000 VRB03KT 4SM -DZ BR VCSH OVC007
     FM011200 04003KT 3SM -DZ BR VCSH OVC004
      TEMPO 0112/0115 2SM SHRA BR SCT004 OVC012
     FM012000 03006KT 5SM BR SCT004 OVC009
     FM020100 VRB04KT 4SM BR OVC006=



000
FTUS44 KHGX 010533
TAFHOU
TAF
KHOU 010533Z 0106/0206 08009KT 4SM -DZ BR OVC009
     FM010800 07003KT 2SM -DZ BR VCSH OVC007
     FM011000 06003KT 4SM -DZ BR VCSH OVC004
      TEMPO 0112/0116 2SM SHRA BR
     FM011700 10007KT 4SM -DZ BR VCSH OVC007
     FM012100 09007KT 6SM BR SCT004 OVC009
     FM020300 06005KT 2SM BR OVC003=



000
FTUS44 KHGX 010505 AAB
TAFSGR
TAF AMD
KSGR 010505Z 0105/0124 09008KT 4SM -DZ BR OVC007
      TEMPO 0105/0106 2SM SHRA BR
     FM010800 04003KT 2SM -DZ BR VCSH OVC004
     FM011500 05004KT 4SM -DZ BR VCSH OVC006
     FM012100 05006KT 5SM BR VCSH SCT004 OVC008=



000
FTUS44 KHGX 010505 AAB
TAFSGR
TAF AMD
KSGR 010505Z 0105/0124 09008KT 4SM -DZ BR OVC007
      TEMPO 0105/0106 2SM SHRA BR
     FM010800 04003KT 2SM -DZ BR VCSH OVC004
     FM011500 05004KT 4SM -DZ BR VCSH OVC006
     FM012100 05006KT 5SM BR VCSH SCT004 OVC008=



000
FTUS44 KHGX 010505 AAB
TAFSGR
TAF AMD
KSGR 010505Z 0105/0124 09008KT 4SM -DZ BR OVC007
      TEMPO 0105/0106 2SM SHRA BR
     FM010800 04003KT 2SM -DZ BR VCSH OVC004
     FM011500 05004KT 4SM -DZ BR VCSH OVC006
     FM012100 05006KT 5SM BR VCSH SCT004 OVC008=



000
FTUS44 KHGX 010504 AAA
TAFGLS
TAF AMD
KGLS 010504Z 0105/0124 06013KT 6SM -DZ BR OVC005
     FM010700 08011KT 2SM BR OVC004
     FM011500 06010KT 4SM -DZ BR VCSH OVC007
     FM012100 12010KT 1/2SM FG VCSH OVC002=



000
FTUS44 KHGX 010504 AAA
TAFGLS
TAF AMD
KGLS 010504Z 0105/0124 06013KT 6SM -DZ BR OVC005
     FM010700 08011KT 2SM BR OVC004
     FM011500 06010KT 4SM -DZ BR VCSH OVC007
     FM012100 12010KT 1/2SM FG VCSH OVC002=



000
FTUS44 KHGX 010504 AAA
TAFGLS
TAF AMD
KGLS 010504Z 0105/0124 06013KT 6SM -DZ BR OVC005
     FM010700 08011KT 2SM BR OVC004
     FM011500 06010KT 4SM -DZ BR VCSH OVC007
     FM012100 12010KT 1/2SM FG VCSH OVC002=



000
FTUS44 KHGX 010404 AAA
TAFLBX
TAF AMD
KLBX 010404Z 0104/0124 08011KT 2SM -DZ BR VCSH OVC004
      TEMPO 0104/0107 1SM SHRA BR OVC003
     FM011500 06007KT 4SM -DZ BR VCSH OVC006
     FM012000 08009KT 5SM BR VCSH SCT004 OVC009=



000
FTUS44 KHGX 010404 AAA
TAFLBX
TAF AMD
KLBX 010404Z 0104/0124 08011KT 2SM -DZ BR VCSH OVC004
      TEMPO 0104/0107 1SM SHRA BR OVC003
     FM011500 06007KT 4SM -DZ BR VCSH OVC006
     FM012000 08009KT 5SM BR VCSH SCT004 OVC009=



000
FTUS44 KHGX 010404 AAA
TAFLBX
TAF AMD
KLBX 010404Z 0104/0124 08011KT 2SM -DZ BR VCSH OVC004
      TEMPO 0104/0107 1SM SHRA BR OVC003
     FM011500 06007KT 4SM -DZ BR VCSH OVC006
     FM012000 08009KT 5SM BR VCSH SCT004 OVC009=



000
FTUS44 KHGX 010402 AAC
TAFHOU
TAF AMD
KHOU 010402Z 0104/0124 08010KT P6SM OVC011
     FM010430 09008KT 4SM -DZ BR OVC009
     FM010800 04003KT 2SM -DZ BR VCSH OVC004
     FM011500 05004KT 4SM -DZ BR VCSH OVC006
     FM012100 05006KT 5SM BR VCSH SCT004 OVC008=



000
FTUS44 KHGX 010402 AAC
TAFHOU
TAF AMD
KHOU 010402Z 0104/0124 08010KT P6SM OVC011
     FM010430 09008KT 4SM -DZ BR OVC009
     FM010800 04003KT 2SM -DZ BR VCSH OVC004
     FM011500 05004KT 4SM -DZ BR VCSH OVC006
     FM012100 05006KT 5SM BR VCSH SCT004 OVC008=



000
FTUS44 KHGX 010323 AAB
TAFHOU
TAF AMD
KHOU 010323Z 0103/0124 08008KT P6SM OVC015
     FM010430 09008KT 4SM -DZ BR OVC009
     FM010800 04003KT 2SM -DZ BR VCSH OVC004
     FM011500 05004KT 4SM -DZ BR VCSH OVC006
     FM012100 05006KT 5SM BR VCSH SCT004 OVC008=



000
FTUS44 KHGX 010323 AAB
TAFHOU
TAF AMD
KHOU 010323Z 0103/0124 08008KT P6SM OVC015
     FM010430 09008KT 4SM -DZ BR OVC009
     FM010800 04003KT 2SM -DZ BR VCSH OVC004
     FM011500 05004KT 4SM -DZ BR VCSH OVC006
     FM012100 05006KT 5SM BR VCSH SCT004 OVC008=



000
FTUS44 KHGX 010323 AAA
TAFCXO
TAF AMD
KCXO 010323Z 0103/0124 06006KT P6SM -DZ OVC022
     FM010430 VRB04KT 6SM -DZ BR OVC015
     FM010700 VRB04KT 5SM -DZ OVC009
     FM010900 VRB03KT 4SM -DZ BR VCSH OVC007
     FM011100 04003KT 2SM -DZ BR VCSH OVC004
     FM011500 05004KT 4SM -DZ BR VCSH OVC006
     FM012100 03006KT 6SM BR VCSH SCT004 OVC008=



000
FTUS44 KHGX 010323 AAA
TAFCXO
TAF AMD
KCXO 010323Z 0103/0124 06006KT P6SM -DZ OVC022
     FM010430 VRB04KT 6SM -DZ BR OVC015
     FM010700 VRB04KT 5SM -DZ OVC009
     FM010900 VRB03KT 4SM -DZ BR VCSH OVC007
     FM011100 04003KT 2SM -DZ BR VCSH OVC004
     FM011500 05004KT 4SM -DZ BR VCSH OVC006
     FM012100 03006KT 6SM BR VCSH SCT004 OVC008=



000
FTUS44 KHGX 010321 AAB
TAFIAH
TAF AMD
KIAH 010321Z 0103/0206 07008KT 6SM -DZ BR OVC015
     FM010600 04005KT 5SM -DZ OVC009
     FM010800 04003KT 4SM -DZ BR VCSH OVC007
     FM011000 04003KT 2SM -DZ BR VCSH OVC004
     FM011500 05004KT 4SM -DZ BR VCSH OVC006
     FM012100 05006KT 6SM BR VCSH SCT004 OVC008
     FM020300 05005KT 1SM -DZ BR OVC003=



000
FTUS44 KHGX 010321 AAB
TAFIAH
TAF AMD
KIAH 010321Z 0103/0206 07008KT 6SM -DZ BR OVC015
     FM010600 04005KT 5SM -DZ OVC009
     FM010800 04003KT 4SM -DZ BR VCSH OVC007
     FM011000 04003KT 2SM -DZ BR VCSH OVC004
     FM011500 05004KT 4SM -DZ BR VCSH OVC006
     FM012100 05006KT 6SM BR VCSH SCT004 OVC008
     FM020300 05005KT 1SM -DZ BR OVC003=



000
FTUS44 KHGX 010321 AAB
TAFIAH
TAF AMD
KIAH 010321Z 0103/0206 07008KT 6SM -DZ BR OVC015
     FM010600 04005KT 5SM -DZ OVC009
     FM010800 04003KT 4SM -DZ BR VCSH OVC007
     FM011000 04003KT 2SM -DZ BR VCSH OVC004
     FM011500 05004KT 4SM -DZ BR VCSH OVC006
     FM012100 05006KT 6SM BR VCSH SCT004 OVC008
     FM020300 05005KT 1SM -DZ BR OVC003=



000
FTUS44 KHGX 010213 AAA
TAFSGR
TAF AMD
KSGR 010213Z 0102/0124 08008KT P6SM OVC015
     FM010400 09008KT 4SM -DZ BR OVC007
     FM010800 04003KT 2SM -DZ BR VCSH OVC004
     FM011500 05004KT 4SM -DZ BR VCSH OVC006
     FM012100 05006KT 5SM BR VCSH SCT004 OVC008=



000
FTUS44 KHGX 010213 AAA
TAFSGR
TAF AMD
KSGR 010213Z 0102/0124 08008KT P6SM OVC015
     FM010400 09008KT 4SM -DZ BR OVC007
     FM010800 04003KT 2SM -DZ BR VCSH OVC004
     FM011500 05004KT 4SM -DZ BR VCSH OVC006
     FM012100 05006KT 5SM BR VCSH SCT004 OVC008=



000
FTUS44 KHGX 010213 AAA
TAFHOU
TAF AMD
KHOU 010213Z 0102/0124 08008KT P6SM OVC015
     FM010500 09008KT 4SM -DZ BR OVC007
     FM010800 04003KT 2SM -DZ BR VCSH OVC004
     FM011500 05004KT 4SM -DZ BR VCSH OVC006
     FM012100 05006KT 5SM BR VCSH SCT004 OVC008=



000
FTUS44 KHGX 010213 AAA
TAFHOU
TAF AMD
KHOU 010213Z 0102/0124 08008KT P6SM OVC015
     FM010500 09008KT 4SM -DZ BR OVC007
     FM010800 04003KT 2SM -DZ BR VCSH OVC004
     FM011500 05004KT 4SM -DZ BR VCSH OVC006
     FM012100 05006KT 5SM BR VCSH SCT004 OVC008=



000
FTUS44 KHGX 010212 AAA
TAFIAH
TAF AMD
KIAH 010212Z 0102/0206 07008KT P6SM -DZ OVC015
     FM010600 04005KT 5SM -DZ OVC009
     FM010800 04003KT 4SM -DZ BR VCSH OVC007
     FM011000 04003KT 2SM -DZ BR VCSH OVC004
     FM011500 05004KT 4SM -DZ BR VCSH OVC006
     FM012100 05006KT 6SM BR VCSH SCT004 OVC008
     FM020300 05005KT 1SM -DZ BR OVC003=



000
FTUS44 KHGX 010212 AAA
TAFUTS
TAF AMD
KUTS 010212Z 0102/0124 VRB03KT P6SM SCT015 OVC025
     FM010500 VRB04KT P6SM -DZ OVC015
     FM010700 04003KT 4SM -DZ BR OVC007
     FM011000 04003KT 2SM -DZ BR OVC004
     FM011500 05004KT 4SM -DZ BR OVC006
     FM012100 03006KT 6SM BR VCSH SCT004 OVC008=



000
FTUS44 KHGX 010212 AAA
TAFUTS
TAF AMD
KUTS 010212Z 0102/0124 VRB03KT P6SM SCT015 OVC025
     FM010500 VRB04KT P6SM -DZ OVC015
     FM010700 04003KT 4SM -DZ BR OVC007
     FM011000 04003KT 2SM -DZ BR OVC004
     FM011500 05004KT 4SM -DZ BR OVC006
     FM012100 03006KT 6SM BR VCSH SCT004 OVC008=



000
FTUS44 KHGX 010212 AAA
TAFIAH
TAF AMD
KIAH 010212Z 0102/0206 07008KT P6SM -DZ OVC015
     FM010600 04005KT 5SM -DZ OVC009
     FM010800 04003KT 4SM -DZ BR VCSH OVC007
     FM011000 04003KT 2SM -DZ BR VCSH OVC004
     FM011500 05004KT 4SM -DZ BR VCSH OVC006
     FM012100 05006KT 6SM BR VCSH SCT004 OVC008
     FM020300 05005KT 1SM -DZ BR OVC003=



000
FTUS44 KHGX 010212 AAA
TAFIAH
TAF AMD
KIAH 010212Z 0102/0206 07008KT P6SM -DZ OVC015
     FM010600 04005KT 5SM -DZ OVC009
     FM010800 04003KT 4SM -DZ BR VCSH OVC007
     FM011000 04003KT 2SM -DZ BR VCSH OVC004
     FM011500 05004KT 4SM -DZ BR VCSH OVC006
     FM012100 05006KT 6SM BR VCSH SCT004 OVC008
     FM020300 05005KT 1SM -DZ BR OVC003=



000
FTUS44 KHGX 010211 AAA
TAFCLL
TAF AMD
KCLL 010211Z 0102/0124 01006KT 6SM -DZ BR SCT015 OVC025
     FM010300 02006KT 5SM -DZ BR SCT007 OVC015
     FM010600 02006KT 2SM -DZ BR OVC004
     FM012100 03007KT 6SM BR VCSH SCT004 OVC008=



000
FTUS44 KHGX 010211 AAA
TAFCLL
TAF AMD
KCLL 010211Z 0102/0124 01006KT 6SM -DZ BR SCT015 OVC025
     FM010300 02006KT 5SM -DZ BR SCT007 OVC015
     FM010600 02006KT 2SM -DZ BR OVC004
     FM012100 03007KT 6SM BR VCSH SCT004 OVC008=



000
FTUS44 KHGX 282347 CCA
TAFGLS
TAF COR
KGLS 282347Z 0100/0124 06013KT P6SM -DZ OVC009
     FM010130 08012KT 4SM -DZ BR VCSH OVC008
     FM010600 08011KT 2SM BR OVC004
     FM011500 06010KT 4SM -DZ BR VCSH OVC007
     FM012100 12010KT 1/2SM FG VCSH OVC002=



000
FTUS44 KHGX 282347 CCA
TAFGLS
TAF COR
KGLS 282347Z 0100/0124 06013KT P6SM -DZ OVC009
     FM010130 08012KT 4SM -DZ BR VCSH OVC008
     FM010600 08011KT 2SM BR OVC004
     FM011500 06010KT 4SM -DZ BR VCSH OVC007
     FM012100 12010KT 1/2SM FG VCSH OVC002=



000
FTUS44 KHGX 282347 CCA
TAFGLS
TAF COR
KGLS 282347Z 0100/0124 06013KT P6SM -DZ OVC009
     FM010130 08012KT 4SM -DZ BR VCSH OVC008
     FM010600 08011KT 2SM BR OVC004
     FM011500 06010KT 4SM -DZ BR VCSH OVC007
     FM012100 12010KT 1/2SM FG VCSH OVC002=



000
FTUS44 KHGX 282347 CCA
TAFGLS
TAF COR
KGLS 282347Z 0100/0124 06013KT P6SM -DZ OVC009
     FM010130 08012KT 4SM -DZ BR VCSH OVC008
     FM010600 08011KT 2SM BR OVC004
     FM011500 06010KT 4SM -DZ BR VCSH OVC007
     FM012100 12010KT 1/2SM FG VCSH OVC002=



000
FTUS44 KHGX 282325
TAFHOU
TAF
KHOU 282325Z 0100/0124 09009KT P6SM OVC015
     FM010300 09008KT 4SM -DZ BR OVC007
     FM010600 04003KT 2SM -DZ BR VCSH OVC004
     FM011500 05004KT 4SM -DZ BR VCSH OVC006
     FM012100 05006KT 5SM BR VCSH SCT004 OVC008=



000
FTUS44 KHGX 282325
TAFGLS
TAF
KGLS 282325Z 0100/0124 07012KT P6SM OVC011
     FM010100 08012KT 4SM -DZ BR VCSH OVC008
     FM010600 08011KT 2SM BR OVC004
     FM011500 06010KT 4SM -DZ BR VCSH OVC007
     FM012100 12010KT 1/2SM FG VCSH OVC002=



000
FTUS44 KHGX 282325
TAFIAH
TAF
KIAH 282325Z 0100/0206 10008KT P6SM -DZ OVC015
     FM010400 04005KT 5SM -DZ OVC009
     FM010600 04003KT 4SM -DZ BR VCSH OVC007
     FM010900 04003KT 2SM -DZ BR VCSH OVC004
     FM011500 05004KT 4SM -DZ BR VCSH OVC006
     FM012100 05006KT 6SM BR VCSH SCT004 OVC008
     FM020300 05005KT 1SM -DZ BR OVC003=



000
FTUS44 KHGX 282325
TAFLBX
TAF
KLBX 282325Z 0100/0124 08011KT 6SM -DZ BR OVC009
     FM010200 08010KT 4SM -DZ BR OVC006
     FM010500 07008KT 2SM -DZ BR VCSH OVC004
     FM011500 06007KT 4SM -DZ BR VCSH OVC006
     FM012000 08009KT 5SM BR VCSH SCT004 OVC009=



000
FTUS44 KHGX 282325
TAFGLS
TAF
KGLS 282325Z 0100/0124 07012KT P6SM OVC011
     FM010100 08012KT 4SM -DZ BR VCSH OVC008
     FM010600 08011KT 2SM BR OVC004
     FM011500 06010KT 4SM -DZ BR VCSH OVC007
     FM012100 12010KT 1/2SM FG VCSH OVC002=



000
FTUS44 KHGX 282325
TAFGLS
TAF
KGLS 282325Z 0100/0124 07012KT P6SM OVC011
     FM010100 08012KT 4SM -DZ BR VCSH OVC008
     FM010600 08011KT 2SM BR OVC004
     FM011500 06010KT 4SM -DZ BR VCSH OVC007
     FM012100 12010KT 1/2SM FG VCSH OVC002=



000
FTUS44 KHGX 282325
TAFSGR
TAF
KSGR 282325Z 0100/0124 08008KT P6SM OVC015
     FM010200 09008KT 4SM -DZ BR OVC007
     FM010500 04003KT 2SM -DZ BR VCSH OVC004
     FM011500 05004KT 4SM -DZ BR VCSH OVC006
     FM012100 05006KT 5SM BR VCSH SCT004 OVC008=



000
FTUS44 KHGX 282325
TAFUTS
TAF
KUTS 282325Z 0100/0124 06006KT P6SM SCT015 OVC025
     FM010200 05004KT P6SM -DZ OVC015
     FM010600 04003KT 4SM -DZ BR OVC007
     FM010900 04003KT 2SM -DZ BR OVC004
     FM011500 05004KT 4SM -DZ BR OVC006
     FM012100 03006KT 6SM BR VCSH SCT004 OVC008=



000
FTUS44 KHGX 282325
TAFCXO
TAF
KCXO 282325Z 0100/0124 06006KT P6SM -DZ OVC015
     FM010500 04005KT 5SM -DZ OVC009
     FM010600 04003KT 4SM -DZ BR VCSH OVC007
     FM010900 04003KT 2SM -DZ BR VCSH OVC004
     FM011500 05004KT 4SM -DZ BR VCSH OVC006
     FM012100 03006KT 6SM BR VCSH SCT004 OVC008=



000
FTUS44 KHGX 282325
TAFCLL
TAF
KCLL 282325Z 0100/0124 02008KT 6SM -DZ BR BKN015 OVC025
     FM010300 04008KT 5SM -DZ BR OVC007
     FM010600 04007KT 2SM -DZ BR OVC004
     FM012100 03007KT 6SM BR VCSH SCT004 OVC008=



000
FTUS44 KHGX 282325
TAFIAH
TAF
KIAH 282325Z 0100/0206 10008KT P6SM -DZ OVC015
     FM010400 04005KT 5SM -DZ OVC009
     FM010600 04003KT 4SM -DZ BR VCSH OVC007
     FM010900 04003KT 2SM -DZ BR VCSH OVC004
     FM011500 05004KT 4SM -DZ BR VCSH OVC006
     FM012100 05006KT 6SM BR VCSH SCT004 OVC008
     FM020300 05005KT 1SM -DZ BR OVC003=



000
FTUS44 KHGX 282325
TAFCLL
TAF
KCLL 282325Z 0100/0124 02008KT 6SM -DZ BR BKN015 OVC025
     FM010300 04008KT 5SM -DZ BR OVC007
     FM010600 04007KT 2SM -DZ BR OVC004
     FM012100 03007KT 6SM BR VCSH SCT004 OVC008=



000
FTUS44 KHGX 282325
TAFSGR
TAF
KSGR 282325Z 0100/0124 08008KT P6SM OVC015
     FM010200 09008KT 4SM -DZ BR OVC007
     FM010500 04003KT 2SM -DZ BR VCSH OVC004
     FM011500 05004KT 4SM -DZ BR VCSH OVC006
     FM012100 05006KT 5SM BR VCSH SCT004 OVC008=



000
FTUS44 KHGX 282325
TAFUTS
TAF
KUTS 282325Z 0100/0124 06006KT P6SM SCT015 OVC025
     FM010200 05004KT P6SM -DZ OVC015
     FM010600 04003KT 4SM -DZ BR OVC007
     FM010900 04003KT 2SM -DZ BR OVC004
     FM011500 05004KT 4SM -DZ BR OVC006
     FM012100 03006KT 6SM BR VCSH SCT004 OVC008=



000
FTUS44 KHGX 282325
TAFHOU
TAF
KHOU 282325Z 0100/0124 09009KT P6SM OVC015
     FM010300 09008KT 4SM -DZ BR OVC007
     FM010600 04003KT 2SM -DZ BR VCSH OVC004
     FM011500 05004KT 4SM -DZ BR VCSH OVC006
     FM012100 05006KT 5SM BR VCSH SCT004 OVC008=



000
FTUS44 KHGX 282325
TAFIAH
TAF
KIAH 282325Z 0100/0206 10008KT P6SM -DZ OVC015
     FM010400 04005KT 5SM -DZ OVC009
     FM010600 04003KT 4SM -DZ BR VCSH OVC007
     FM010900 04003KT 2SM -DZ BR VCSH OVC004
     FM011500 05004KT 4SM -DZ BR VCSH OVC006
     FM012100 05006KT 6SM BR VCSH SCT004 OVC008
     FM020300 05005KT 1SM -DZ BR OVC003=



000
FTUS44 KHGX 282325
TAFCLL
TAF
KCLL 282325Z 0100/0124 02008KT 6SM -DZ BR BKN015 OVC025
     FM010300 04008KT 5SM -DZ BR OVC007
     FM010600 04007KT 2SM -DZ BR OVC004
     FM012100 03007KT 6SM BR VCSH SCT004 OVC008=



000
FTUS44 KHGX 282325
TAFSGR
TAF
KSGR 282325Z 0100/0124 08008KT P6SM OVC015
     FM010200 09008KT 4SM -DZ BR OVC007
     FM010500 04003KT 2SM -DZ BR VCSH OVC004
     FM011500 05004KT 4SM -DZ BR VCSH OVC006
     FM012100 05006KT 5SM BR VCSH SCT004 OVC008=



000
FTUS44 KHGX 282325
TAFUTS
TAF
KUTS 282325Z 0100/0124 06006KT P6SM SCT015 OVC025
     FM010200 05004KT P6SM -DZ OVC015
     FM010600 04003KT 4SM -DZ BR OVC007
     FM010900 04003KT 2SM -DZ BR OVC004
     FM011500 05004KT 4SM -DZ BR OVC006
     FM012100 03006KT 6SM BR VCSH SCT004 OVC008=



000
FTUS44 KHGX 282325
TAFCLL
TAF
KCLL 282325Z 0100/0124 02008KT 6SM -DZ BR BKN015 OVC025
     FM010300 04008KT 5SM -DZ BR OVC007
     FM010600 04007KT 2SM -DZ BR OVC004
     FM012100 03007KT 6SM BR VCSH SCT004 OVC008=



000
FTUS44 KHGX 282325
TAFSGR
TAF
KSGR 282325Z 0100/0124 08008KT P6SM OVC015
     FM010200 09008KT 4SM -DZ BR OVC007
     FM010500 04003KT 2SM -DZ BR VCSH OVC004
     FM011500 05004KT 4SM -DZ BR VCSH OVC006
     FM012100 05006KT 5SM BR VCSH SCT004 OVC008=



000
FTUS44 KHGX 282325
TAFHOU
TAF
KHOU 282325Z 0100/0124 09009KT P6SM OVC015
     FM010300 09008KT 4SM -DZ BR OVC007
     FM010600 04003KT 2SM -DZ BR VCSH OVC004
     FM011500 05004KT 4SM -DZ BR VCSH OVC006
     FM012100 05006KT 5SM BR VCSH SCT004 OVC008=



000
FTUS44 KHGX 282325
TAFCXO
TAF
KCXO 282325Z 0100/0124 06006KT P6SM -DZ OVC015
     FM010500 04005KT 5SM -DZ OVC009
     FM010600 04003KT 4SM -DZ BR VCSH OVC007
     FM010900 04003KT 2SM -DZ BR VCSH OVC004
     FM011500 05004KT 4SM -DZ BR VCSH OVC006
     FM012100 03006KT 6SM BR VCSH SCT004 OVC008=



000
FTUS44 KHGX 282325
TAFLBX
TAF
KLBX 282325Z 0100/0124 08011KT 6SM -DZ BR OVC009
     FM010200 08010KT 4SM -DZ BR OVC006
     FM010500 07008KT 2SM -DZ BR VCSH OVC004
     FM011500 06007KT 4SM -DZ BR VCSH OVC006
     FM012000 08009KT 5SM BR VCSH SCT004 OVC009=



000
FTUS44 KHGX 282325
TAFUTS
TAF
KUTS 282325Z 0100/0124 06006KT P6SM SCT015 OVC025
     FM010200 05004KT P6SM -DZ OVC015
     FM010600 04003KT 4SM -DZ BR OVC007
     FM010900 04003KT 2SM -DZ BR OVC004
     FM011500 05004KT 4SM -DZ BR OVC006
     FM012100 03006KT 6SM BR VCSH SCT004 OVC008=



000
FTUS44 KHGX 282325
TAFCXO
TAF
KCXO 282325Z 0100/0124 06006KT P6SM -DZ OVC015
     FM010500 04005KT 5SM -DZ OVC009
     FM010600 04003KT 4SM -DZ BR VCSH OVC007
     FM010900 04003KT 2SM -DZ BR VCSH OVC004
     FM011500 05004KT 4SM -DZ BR VCSH OVC006
     FM012100 03006KT 6SM BR VCSH SCT004 OVC008=



000
FTUS44 KHGX 282325
TAFHOU
TAF
KHOU 282325Z 0100/0124 09009KT P6SM OVC015
     FM010300 09008KT 4SM -DZ BR OVC007
     FM010600 04003KT 2SM -DZ BR VCSH OVC004
     FM011500 05004KT 4SM -DZ BR VCSH OVC006
     FM012100 05006KT 5SM BR VCSH SCT004 OVC008=



000
FTUS44 KHGX 282325
TAFIAH
TAF
KIAH 282325Z 0100/0206 10008KT P6SM -DZ OVC015
     FM010400 04005KT 5SM -DZ OVC009
     FM010600 04003KT 4SM -DZ BR VCSH OVC007
     FM010900 04003KT 2SM -DZ BR VCSH OVC004
     FM011500 05004KT 4SM -DZ BR VCSH OVC006
     FM012100 05006KT 6SM BR VCSH SCT004 OVC008
     FM020300 05005KT 1SM -DZ BR OVC003=



000
FTUS44 KHGX 282325
TAFLBX
TAF
KLBX 282325Z 0100/0124 08011KT 6SM -DZ BR OVC009
     FM010200 08010KT 4SM -DZ BR OVC006
     FM010500 07008KT 2SM -DZ BR VCSH OVC004
     FM011500 06007KT 4SM -DZ BR VCSH OVC006
     FM012000 08009KT 5SM BR VCSH SCT004 OVC009=



000
FTUS44 KHGX 282325
TAFLBX
TAF
KLBX 282325Z 0100/0124 08011KT 6SM -DZ BR OVC009
     FM010200 08010KT 4SM -DZ BR OVC006
     FM010500 07008KT 2SM -DZ BR VCSH OVC004
     FM011500 06007KT 4SM -DZ BR VCSH OVC006
     FM012000 08009KT 5SM BR VCSH SCT004 OVC009=



000
FTUS44 KHGX 282325
TAFCXO
TAF
KCXO 282325Z 0100/0124 06006KT P6SM -DZ OVC015
     FM010500 04005KT 5SM -DZ OVC009
     FM010600 04003KT 4SM -DZ BR VCSH OVC007
     FM010900 04003KT 2SM -DZ BR VCSH OVC004
     FM011500 05004KT 4SM -DZ BR VCSH OVC006
     FM012100 03006KT 6SM BR VCSH SCT004 OVC008=



000
FTUS44 KHGX 282055 AAA
TAFGLS
TAF AMD
KGLS 282055Z 2821/0118 08014KT P6SM OVC014
     FM010300 08015KT 3SM -RA VCSH BKN008 OVC015
     FM010700 10014KT 4SM -SHRA VCSH OVC007
     FM011600 08011KT 2SM BR OVC003=



000
FTUS44 KHGX 282055 AAA
TAFGLS
TAF AMD
KGLS 282055Z 2821/0118 08014KT P6SM OVC014
     FM010300 08015KT 3SM -RA VCSH BKN008 OVC015
     FM010700 10014KT 4SM -SHRA VCSH OVC007
     FM011600 08011KT 2SM BR OVC003=



000
FTUS44 KHGX 282054 AAA
TAFLBX
TAF AMD
KLBX 282054Z 2821/0118 08011G20KT P6SM OVC012
     FM010000 08012KT P6SM VCSH SCT008 OVC010
     FM010500 09012KT 5SM BR VCSH BKN008 OVC012
     FM010900 10011KT 4SM BR VCSH OVC007
     FM011500 12008KT 6SM BR OVC010=



000
FTUS44 KHGX 282054 AAA
TAFLBX
TAF AMD
KLBX 282054Z 2821/0118 08011G20KT P6SM OVC012
     FM010000 08012KT P6SM VCSH SCT008 OVC010
     FM010500 09012KT 5SM BR VCSH BKN008 OVC012
     FM010900 10011KT 4SM BR VCSH OVC007
     FM011500 12008KT 6SM BR OVC010=



000
FTUS44 KHGX 282054 AAA
TAFLBX
TAF AMD
KLBX 282054Z 2821/0118 08011G20KT P6SM OVC012
     FM010000 08012KT P6SM VCSH SCT008 OVC010
     FM010500 09012KT 5SM BR VCSH BKN008 OVC012
     FM010900 10011KT 4SM BR VCSH OVC007
     FM011500 12008KT 6SM BR OVC010=



000
FTUS44 KHGX 282053 AAA
TAFSGR
TAF AMD
KSGR 282053Z 2821/0118 09009KT P6SM OVC018
     FM010300 10008KT 5SM BR VCSH BKN015 OVC025
     FM010900 11009KT 4SM BR VCSH OVC007
     FM011300 11009KT 4SM -DZ OVC007
     FM011500 07008KT 6SM BR OVC010=



000
FTUS44 KHGX 282053 AAA
TAFCXO
TAF AMD
KCXO 282053Z 2821/0118 12005KT P6SM BKN024 OVC090
     FM010300 09003KT 6SM BR VCSH BKN015 OVC025
     FM010600 00000KT 4SM BR VCSH OVC007
     FM011500 05004KT 6SM BR OVC007=



000
FTUS44 KHGX 282053 AAA
TAFSGR
TAF AMD
KSGR 282053Z 2821/0118 09009KT P6SM OVC018
     FM010300 10008KT 5SM BR VCSH BKN015 OVC025
     FM010900 11009KT 4SM BR VCSH OVC007
     FM011300 11009KT 4SM -DZ OVC007
     FM011500 07008KT 6SM BR OVC010=



000
FTUS44 KHGX 282053 AAA
TAFSGR
TAF AMD
KSGR 282053Z 2821/0118 09009KT P6SM OVC018
     FM010300 10008KT 5SM BR VCSH BKN015 OVC025
     FM010900 11009KT 4SM BR VCSH OVC007
     FM011300 11009KT 4SM -DZ OVC007
     FM011500 07008KT 6SM BR OVC010=



000
FTUS44 KHGX 282053 AAA
TAFSGR
TAF AMD
KSGR 282053Z 2821/0118 09009KT P6SM OVC018
     FM010300 10008KT 5SM BR VCSH BKN015 OVC025
     FM010900 11009KT 4SM BR VCSH OVC007
     FM011300 11009KT 4SM -DZ OVC007
     FM011500 07008KT 6SM BR OVC010=



000
FTUS44 KHGX 282052 AAA
TAFUTS
TAF AMD
KUTS 282052Z 2821/0118 06006KT P6SM BKN026 OVC090
     FM010200 08006KT 6SM BR VCSH OVC015
     FM010600 06005KT 4SM BR VCSH OVC007
     FM011500 05004KT 6SM BR OVC007=



000
FTUS44 KHGX 282052 AAA
TAFUTS
TAF AMD
KUTS 282052Z 2821/0118 06006KT P6SM BKN026 OVC090
     FM010200 08006KT 6SM BR VCSH OVC015
     FM010600 06005KT 4SM BR VCSH OVC007
     FM011500 05004KT 6SM BR OVC007=



000
FTUS44 KHGX 282051 AAA
TAFHOU
TAF AMD
KHOU 282051Z 2821/0118 09010G16KT P6SM OVC019
     FM010300 10008KT 5SM BR VCSH BKN015
     FM010800 09009KT 2SM BR VCSH BKN008 OVC012
     FM011300 11009KT 4SM -DZ OVC007
     FM011500 07008KT 6SM BR OVC010=



000
FTUS44 KHGX 282051 AAA
TAFIAH
TAF AMD
KIAH 282051Z 2821/0124 11008KT P6SM OVC021
     FM010300 10008KT 5SM BR VCSH BKN015
     FM010800 09006KT 2SM BR VCSH BKN008 OVC012
     FM011300 11009KT 4SM -DZ OVC007
     FM011500 07008KT 6SM BR OVC010=



000
FTUS44 KHGX 281741
TAFIAH
TAF
KIAH 281741Z 2818/0124 08009KT P6SM OVC029
     FM282000 11011KT P6SM VCSH BKN030 BKN070
     FM010400 10008KT 5SM BR VCSH BKN015 OVC025
     FM010800 09006KT 2SM BR VCSH BKN008 OVC012
     FM011300 11009KT 4SM -DZ OVC007
     FM011500 07008KT 6SM BR OVC010=



000
FTUS44 KHGX 281741
TAFUTS
TAF
KUTS 281741Z 2818/0118 09007KT P6SM OVC035
     FM282100 07007KT P6SM VCSH BKN035
     FM010300 08006KT 6SM BR VCSH OVC015
     FM010600 06005KT 4SM BR VCSH OVC007
     FM011500 05004KT 6SM BR OVC007=



000
FTUS44 KHGX 281741
TAFCLL
TAF
KCLL 281741Z 2818/0118 VRB03KT P6SM OVC029
     FM282000 04008KT P6SM VCSH BKN030 BKN070
     FM010300 05008KT 6SM BR VCSH BKN007 OVC015
     FM010600 04005KT 4SM BR VCSH OVC007
     FM011500 03007KT 6SM BR OVC007=



000
FTUS44 KHGX 281741
TAFLBX
TAF
KLBX 281741Z 2818/0118 09012G19KT P6SM OVC016
     FM282000 09011G20KT P6SM VCSH BKN025
     FM010000 08012KT P6SM VCSH SCT008 OVC015
     FM010500 09012KT 5SM BR VCSH BKN008 OVC012
     FM010900 10011KT 4SM BR VCSH OVC007
     FM011500 12008KT 6SM BR OVC010=



000
FTUS44 KHGX 281741
TAFSGR
TAF
KSGR 281741Z 2818/0118 10012KT P6SM OVC023
     FM282000 10011KT P6SM VCSH BKN030
     FM010400 10008KT 5SM BR VCSH BKN008 BKN015 OVC025
     FM010900 11009KT 4SM BR VCSH OVC007
     FM011300 11009KT 4SM -DZ OVC007
     FM011500 07008KT 6SM BR OVC010=



000
FTUS44 KHGX 281741
TAFHOU
TAF
KHOU 281741Z 2818/0118 08014G19KT P6SM BKN029 BKN100
     FM282000 10011KT P6SM VCSH BKN035
     FM010400 10008KT 5SM BR VCSH BKN015 OVC025
     FM010800 09009KT 2SM BR VCSH BKN008 OVC012
     FM011300 11009KT 4SM -DZ OVC007
     FM011500 07008KT 6SM BR OVC010=



000
FTUS44 KHGX 281741
TAFCXO
TAF
KCXO 281741Z 2818/0118 08005KT P6SM OVC035
     FM282100 07007KT P6SM VCSH BKN035
     FM010300 09003KT 6SM BR VCSH BKN015 OVC025
     FM010600 00000KT 4SM BR VCSH OVC007
     FM011500 05004KT 6SM BR OVC007=



000
FTUS44 KHGX 281741
TAFCLL
TAF
KCLL 281741Z 2818/0118 VRB03KT P6SM OVC029
     FM282000 04008KT P6SM VCSH BKN030 BKN070
     FM010300 05008KT 6SM BR VCSH BKN007 OVC015
     FM010600 04005KT 4SM BR VCSH OVC007
     FM011500 03007KT 6SM BR OVC007=



000
FTUS44 KHGX 281741
TAFGLS
TAF
KGLS 281741Z 2818/0118 07016G23KT P6SM OVC028
     FM282000 09011G20KT P6SM VCSH BKN025
     FM010300 08015KT 3SM -RA VCSH BKN008 OVC015
     FM010700 10014KT 4SM -SHRA VCSH OVC007
     FM011600 08011KT 2SM BR OVC003=



000
FTUS44 KHGX 281741
TAFLBX
TAF
KLBX 281741Z 2818/0118 09012G19KT P6SM OVC016
     FM282000 09011G20KT P6SM VCSH BKN025
     FM010000 08012KT P6SM VCSH SCT008 OVC015
     FM010500 09012KT 5SM BR VCSH BKN008 OVC012
     FM010900 10011KT 4SM BR VCSH OVC007
     FM011500 12008KT 6SM BR OVC010=



000
FTUS44 KHGX 281741
TAFUTS
TAF
KUTS 281741Z 2818/0118 09007KT P6SM OVC035
     FM282100 07007KT P6SM VCSH BKN035
     FM010300 08006KT 6SM BR VCSH OVC015
     FM010600 06005KT 4SM BR VCSH OVC007
     FM011500 05004KT 6SM BR OVC007=



000
FTUS44 KHGX 281741
TAFSGR
TAF
KSGR 281741Z 2818/0118 10012KT P6SM OVC023
     FM282000 10011KT P6SM VCSH BKN030
     FM010400 10008KT 5SM BR VCSH BKN008 BKN015 OVC025
     FM010900 11009KT 4SM BR VCSH OVC007
     FM011300 11009KT 4SM -DZ OVC007
     FM011500 07008KT 6SM BR OVC010=



000
FTUS44 KHGX 281741
TAFIAH
TAF
KIAH 281741Z 2818/0124 08009KT P6SM OVC029
     FM282000 11011KT P6SM VCSH BKN030 BKN070
     FM010400 10008KT 5SM BR VCSH BKN015 OVC025
     FM010800 09006KT 2SM BR VCSH BKN008 OVC012
     FM011300 11009KT 4SM -DZ OVC007
     FM011500 07008KT 6SM BR OVC010=



000
FTUS44 KHGX 281741
TAFGLS
TAF
KGLS 281741Z 2818/0118 07016G23KT P6SM OVC028
     FM282000 09011G20KT P6SM VCSH BKN025
     FM010300 08015KT 3SM -RA VCSH BKN008 OVC015
     FM010700 10014KT 4SM -SHRA VCSH OVC007
     FM011600 08011KT 2SM BR OVC003=



000
FTUS44 KHGX 281741
TAFCXO
TAF
KCXO 281741Z 2818/0118 08005KT P6SM OVC035
     FM282100 07007KT P6SM VCSH BKN035
     FM010300 09003KT 6SM BR VCSH BKN015 OVC025
     FM010600 00000KT 4SM BR VCSH OVC007
     FM011500 05004KT 6SM BR OVC007=



000
FTUS44 KHGX 281741
TAFHOU
TAF
KHOU 281741Z 2818/0118 08014G19KT P6SM BKN029 BKN100
     FM282000 10011KT P6SM VCSH BKN035
     FM010400 10008KT 5SM BR VCSH BKN015 OVC025
     FM010800 09009KT 2SM BR VCSH BKN008 OVC012
     FM011300 11009KT 4SM -DZ OVC007
     FM011500 07008KT 6SM BR OVC010=



000
FTUS44 KHGX 281152 CCA
TAFLBX
TAF COR
KLBX 281152Z 2812/0112 05011KT P6SM OVC012
     FM281600 06014KT P6SM BKN015 BKN035
     FM010000 08012KT P6SM VCSH SCT008 OVC015
     FM010500 09012KT 5SM BR VCSH BKN008 OVC012
     FM010900 10011KT 4SM BR VCSH OVC007=



000
FTUS44 KHGX 281152 CCA
TAFGLS
TAF COR
KGLS 281152Z 2812/0112 06015G23KT P6SM SCT015 OVC100
     FM281500 06015KT 6SM -DZ BKN025 OVC050
     FM010300 08015KT 3SM -RA VCSH BKN008 OVC015
     FM010700 10014KT 4SM -SHRA VCSH OVC007=



000
FTUS44 KHGX 281152 CCA
TAFLBX
TAF COR
KLBX 281152Z 2812/0112 05011KT P6SM OVC012
     FM281600 06014KT P6SM BKN015 BKN035
     FM010000 08012KT P6SM VCSH SCT008 OVC015
     FM010500 09012KT 5SM BR VCSH BKN008 OVC012
     FM010900 10011KT 4SM BR VCSH OVC007=



000
FTUS44 KHGX 281152 CCA
TAFGLS
TAF COR
KGLS 281152Z 2812/0112 06015G23KT P6SM SCT015 OVC100
     FM281500 06015KT 6SM -DZ BKN025 OVC050
     FM010300 08015KT 3SM -RA VCSH BKN008 OVC015
     FM010700 10014KT 4SM -SHRA VCSH OVC007=



000
FTUS44 KHGX 281152 CCA
TAFLBX
TAF COR
KLBX 281152Z 2812/0112 05011KT P6SM OVC012
     FM281600 06014KT P6SM BKN015 BKN035
     FM010000 08012KT P6SM VCSH SCT008 OVC015
     FM010500 09012KT 5SM BR VCSH BKN008 OVC012
     FM010900 10011KT 4SM BR VCSH OVC007=



000
FTUS44 KHGX 281152 CCA
TAFLBX
TAF COR
KLBX 281152Z 2812/0112 05011KT P6SM OVC012
     FM281600 06014KT P6SM BKN015 BKN035
     FM010000 08012KT P6SM VCSH SCT008 OVC015
     FM010500 09012KT 5SM BR VCSH BKN008 OVC012
     FM010900 10011KT 4SM BR VCSH OVC007=



000
FTUS44 KHGX 281152 CCA
TAFGLS
TAF COR
KGLS 281152Z 2812/0112 06015G23KT P6SM SCT015 OVC100
     FM281500 06015KT 6SM -DZ BKN025 OVC050
     FM010300 08015KT 3SM -RA VCSH BKN008 OVC015
     FM010700 10014KT 4SM -SHRA VCSH OVC007=



000
FTUS44 KHGX 281152 CCA
TAFGLS
TAF COR
KGLS 281152Z 2812/0112 06015G23KT P6SM SCT015 OVC100
     FM281500 06015KT 6SM -DZ BKN025 OVC050
     FM010300 08015KT 3SM -RA VCSH BKN008 OVC015
     FM010700 10014KT 4SM -SHRA VCSH OVC007=



000
FTUS44 KHGX 281140
TAFGLS
TAF
KGLS 281140Z 2812/0112 06014KT P6SM SCT016 OVC100
     FM281600 06015G25KT P6SM SCT025 BKN045 OVC070
     FM010000 07015KT P6SM VCSH SCT008 OVC015
     FM010400 08014KT 4SM BR VCSH BKN007 OVC012=



000
FTUS44 KHGX 281140
TAFUTS
TAF
KUTS 281140Z 2812/0112 07006KT P6SM OVC090
     FM281500 06007KT P6SM BKN020 OVC030
     FM282100 07007KT P6SM SCT025 BKN050
     FM010200 08006KT 5SM BR VCSH BKN007 OVC015
     FM010600 00000KT 2SM BR OVC015
      TEMPO 0106/0109 1SM -DZ=



000
FTUS44 KHGX 281140
TAFIAH
TAF
KIAH 281140Z 2812/0118 06008KT P6SM OVC045
     FM281600 08011KT P6SM VCSH BKN020 BKN035
     FM282200 11011KT P6SM VCSH BKN035 BKN070
     FM010400 10008KT 5SM BR VCSH BKN015 OVC025
     FM010800 09006KT 2SM BR VCSH BKN008 OVC012
     FM011300 11009KT 4SM -SHRA OVC007=



000
FTUS44 KHGX 281140
TAFCLL
TAF
KCLL 281140Z 2812/0112 06007KT P6SM OVC030
     FM281500 06010KT P6SM -DZ BKN015 OVC025
     FM010300 06008KT 5SM BR VCSH BKN007 OVC015
     FM010600 04005KT 2SM BR VCSH OVC007
      TEMPO 0107/0111 1/2SM FG=



000
FTUS44 KHGX 281140
TAFHOU
TAF
KHOU 281140Z 2812/0112 07010KT P6SM VCSH BKN045 OVC080
     FM281500 06013KT P6SM SCT015 BKN030 OVC050
     FM282200 10011KT P6SM SCT035 BKN060
     FM010500 10008KT 5SM BR VCSH BKN015 OVC025
     FM010800 09009KT 2SM BR VCSH BKN008 OVC012=



000
FTUS44 KHGX 281140
TAFSGR
TAF
KSGR 281140Z 2812/0112 06009KT P6SM VCSH FEW045 OVC090
     FM281600 08013KT P6SM BKN015 BKN035
     FM010000 09011KT P6SM BKN035 BKN070
     FM010500 10008KT 5SM BR VCSH BKN008 BKN015 OVC025
     FM010900 11009KT 4SM BR VCSH OVC007=



000
FTUS44 KHGX 281140
TAFLBX
TAF
KLBX 281140Z 2812/0112 05011KT P6SM OVC012
     FM281600 06014KT P6SM BKN015 BKN035
     FM010000 08012KT P6SM VCSH SCT008 OVC015
     FM010500 09012KT 4SM BR VCSH BKN008 OVC012
     FM010900 10011KT 4SM BR VCSH OVC007=



000
FTUS44 KHGX 281140
TAFCXO
TAF
KCXO 281140Z 2812/0112 08007KT P6SM SCT030 OVC040
     FM281800 07008KT P6SM SCT015 BKN025
     FM010200 09003KT 5SM BR VCSH SCT008 BKN015 OVC025
     FM010600 VRB03KT 1SM BR VCSH OVC012
     FM010900 00000KT 1/2SM FG VCSH OVC007=



000
FTUS44 KHGX 281140
TAFCXO
TAF
KCXO 281140Z 2812/0112 08007KT P6SM SCT030 OVC040
     FM281800 07008KT P6SM SCT015 BKN025
     FM010200 09003KT 5SM BR VCSH SCT008 BKN015 OVC025
     FM010600 VRB03KT 1SM BR VCSH OVC012
     FM010900 00000KT 1/2SM FG VCSH OVC007=



000
FTUS44 KHGX 281140
TAFLBX
TAF
KLBX 281140Z 2812/0112 05011KT P6SM OVC012
     FM281600 06014KT P6SM BKN015 BKN035
     FM010000 08012KT P6SM VCSH SCT008 OVC015
     FM010500 09012KT 4SM BR VCSH BKN008 OVC012
     FM010900 10011KT 4SM BR VCSH OVC007=



000
FTUS44 KHGX 281140
TAFIAH
TAF
KIAH 281140Z 2812/0118 06008KT P6SM OVC045
     FM281600 08011KT P6SM VCSH BKN020 BKN035
     FM282200 11011KT P6SM VCSH BKN035 BKN070
     FM010400 10008KT 5SM BR VCSH BKN015 OVC025
     FM010800 09006KT 2SM BR VCSH BKN008 OVC012
     FM011300 11009KT 4SM -SHRA OVC007=



000
FTUS44 KHGX 281140
TAFGLS
TAF
KGLS 281140Z 2812/0112 06014KT P6SM SCT016 OVC100
     FM281600 06015G25KT P6SM SCT025 BKN045 OVC070
     FM010000 07015KT P6SM VCSH SCT008 OVC015
     FM010400 08014KT 4SM BR VCSH BKN007 OVC012=



000
FTUS44 KHGX 281140
TAFCLL
TAF
KCLL 281140Z 2812/0112 06007KT P6SM OVC030
     FM281500 06010KT P6SM -DZ BKN015 OVC025
     FM010300 06008KT 5SM BR VCSH BKN007 OVC015
     FM010600 04005KT 2SM BR VCSH OVC007
      TEMPO 0107/0111 1/2SM FG=



000
FTUS44 KHGX 281140
TAFHOU
TAF
KHOU 281140Z 2812/0112 07010KT P6SM VCSH BKN045 OVC080
     FM281500 06013KT P6SM SCT015 BKN030 OVC050
     FM282200 10011KT P6SM SCT035 BKN060
     FM010500 10008KT 5SM BR VCSH BKN015 OVC025
     FM010800 09009KT 2SM BR VCSH BKN008 OVC012=



000
FTUS44 KHGX 281140
TAFUTS
TAF
KUTS 281140Z 2812/0112 07006KT P6SM OVC090
     FM281500 06007KT P6SM BKN020 OVC030
     FM282100 07007KT P6SM SCT025 BKN050
     FM010200 08006KT 5SM BR VCSH BKN007 OVC015
     FM010600 00000KT 2SM BR OVC015
      TEMPO 0106/0109 1SM -DZ=



000
FTUS44 KHGX 281140
TAFSGR
TAF
KSGR 281140Z 2812/0112 06009KT P6SM VCSH FEW045 OVC090
     FM281600 08013KT P6SM BKN015 BKN035
     FM010000 09011KT P6SM BKN035 BKN070
     FM010500 10008KT 5SM BR VCSH BKN008 BKN015 OVC025
     FM010900 11009KT 4SM BR VCSH OVC007=



000
FTUS44 KHGX 280857 AAB
TAFHOU
TAF AMD
KHOU 280857Z 2809/0106 07010KT P6SM VCSH SCT045 BKN060 OVC090
     FM281300 06013KT P6SM SCT015 BKN035 OVC060
     FM281700 08013KT P6SM BKN015 BKN035
     FM010000 10011KT P6SM BKN035 BKN070
     FM010500 10008KT 5SM BR VCSH FEW008 BKN015 OVC025=



000
FTUS44 KHGX 280857 AAA
TAFIAH
TAF AMD
KIAH 280857Z 2809/0112 04009KT P6SM VCSH FEW060 OVC090
     FM281300 06013KT P6SM SCT015 BKN035 OVC060
     FM281700 08013KT P6SM BKN015 BKN035
     FM010000 10011KT P6SM BKN035 BKN070
     FM010500 10008KT 5SM BR VCSH FEW008 BKN015 OVC025
     FM010800 11006KT 2SM -SHRA BR OVC005=



000
FTUS44 KHGX 280857 AAA
TAFIAH
TAF AMD
KIAH 280857Z 2809/0112 04009KT P6SM VCSH FEW060 OVC090
     FM281300 06013KT P6SM SCT015 BKN035 OVC060
     FM281700 08013KT P6SM BKN015 BKN035
     FM010000 10011KT P6SM BKN035 BKN070
     FM010500 10008KT 5SM BR VCSH FEW008 BKN015 OVC025
     FM010800 11006KT 2SM -SHRA BR OVC005=



000
FTUS44 KHGX 280857 AAB
TAFHOU
TAF AMD
KHOU 280857Z 2809/0106 07010KT P6SM VCSH SCT045 BKN060 OVC090
     FM281300 06013KT P6SM SCT015 BKN035 OVC060
     FM281700 08013KT P6SM BKN015 BKN035
     FM010000 10011KT P6SM BKN035 BKN070
     FM010500 10008KT 5SM BR VCSH FEW008 BKN015 OVC025=



000
FTUS44 KHGX 280825 AAA
TAFSGR
TAF AMD
KSGR 280825Z 2808/0106 07009KT P6SM VCSH FEW035 SCT050 OVC090
     FM281300 06013KT P6SM SCT015 BKN035 OVC060
     FM281700 08013KT P6SM BKN015 BKN035
     FM010000 10011KT P6SM BKN035 BKN070
     FM010500 10008KT 5SM BR VCSH BKN008 BKN015 OVC025=



000
FTUS44 KHGX 280825 AAA
TAFSGR
TAF AMD
KSGR 280825Z 2808/0106 07009KT P6SM VCSH FEW035 SCT050 OVC090
     FM281300 06013KT P6SM SCT015 BKN035 OVC060
     FM281700 08013KT P6SM BKN015 BKN035
     FM010000 10011KT P6SM BKN035 BKN070
     FM010500 10008KT 5SM BR VCSH BKN008 BKN015 OVC025=



000
FTUS44 KHGX 280825 AAA
TAFHOU
TAF AMD
KHOU 280825Z 2808/0106 07010KT P6SM VCSH SCT045 BKN060 OVC090
     FM281300 06013KT P6SM SCT015 BKN035 OVC060
     FM281700 08013KT P6SM BKN015 BKN035
     FM010000 10011KT P6SM BKN035 BKN070
     FM010500 10008KT 5SM BR VCSH FEW008 BKN015 OVC025=



000
FTUS44 KHGX 280825 AAA
TAFHOU
TAF AMD
KHOU 280825Z 2808/0106 07010KT P6SM VCSH SCT045 BKN060 OVC090
     FM281300 06013KT P6SM SCT015 BKN035 OVC060
     FM281700 08013KT P6SM BKN015 BKN035
     FM010000 10011KT P6SM BKN035 BKN070
     FM010500 10008KT 5SM BR VCSH FEW008 BKN015 OVC025=



000
FTUS44 KHGX 280642 AAA
TAFLBX
TAF AMD
KLBX 280642Z 2807/0106 04010KT P6SM VCSH OVC030
     FM280900 06013KT P6SM BKN020 OVC070
     FM281600 06014KT P6SM BKN015 BKN035
     FM010000 08012KT P6SM VCSH SCT008 OVC015
     FM010500 09012KT 4SM BR VCSH BKN008 OVC012=



000
FTUS44 KHGX 280642 AAA
TAFLBX
TAF AMD
KLBX 280642Z 2807/0106 04010KT P6SM VCSH OVC030
     FM280900 06013KT P6SM BKN020 OVC070
     FM281600 06014KT P6SM BKN015 BKN035
     FM010000 08012KT P6SM VCSH SCT008 OVC015
     FM010500 09012KT 4SM BR VCSH BKN008 OVC012=



000
FTUS44 KHGX 280642 AAA
TAFLBX
TAF AMD
KLBX 280642Z 2807/0106 04010KT P6SM VCSH OVC030
     FM280900 06013KT P6SM BKN020 OVC070
     FM281600 06014KT P6SM BKN015 BKN035
     FM010000 08012KT P6SM VCSH SCT008 OVC015
     FM010500 09012KT 4SM BR VCSH BKN008 OVC012=



000
FTUS44 KHGX 280642 AAA
TAFLBX
TAF AMD
KLBX 280642Z 2807/0106 04010KT P6SM VCSH OVC030
     FM280900 06013KT P6SM BKN020 OVC070
     FM281600 06014KT P6SM BKN015 BKN035
     FM010000 08012KT P6SM VCSH SCT008 OVC015
     FM010500 09012KT 4SM BR VCSH BKN008 OVC012=



000
FTUS44 KHGX 280640 AAA
TAFGLS
TAF AMD
KGLS 280640Z 2807/0106 06015G22KT P6SM VCSH FEW040 SCT050 OVC080
     FM280900 05016G26KT P6SM BKN025 BKN045 OVC070
     FM281600 06015G25KT P6SM SCT025 BKN045 OVC070
     FM010000 07015KT P6SM VCSH SCT008 OVC015
     FM010400 08014KT 4SM BR VCSH BKN007 OVC012=



000
FTUS44 KHGX 280640 AAA
TAFGLS
TAF AMD
KGLS 280640Z 2807/0106 06015G22KT P6SM VCSH FEW040 SCT050 OVC080
     FM280900 05016G26KT P6SM BKN025 BKN045 OVC070
     FM281600 06015G25KT P6SM SCT025 BKN045 OVC070
     FM010000 07015KT P6SM VCSH SCT008 OVC015
     FM010400 08014KT 4SM BR VCSH BKN007 OVC012=



000
FTUS44 KHGX 280640 AAA
TAFGLS
TAF AMD
KGLS 280640Z 2807/0106 06015G22KT P6SM VCSH FEW040 SCT050 OVC080
     FM280900 05016G26KT P6SM BKN025 BKN045 OVC070
     FM281600 06015G25KT P6SM SCT025 BKN045 OVC070
     FM010000 07015KT P6SM VCSH SCT008 OVC015
     FM010400 08014KT 4SM BR VCSH BKN007 OVC012=



000
FTUS44 KHGX 280640 AAA
TAFGLS
TAF AMD
KGLS 280640Z 2807/0106 06015G22KT P6SM VCSH FEW040 SCT050 OVC080
     FM280900 05016G26KT P6SM BKN025 BKN045 OVC070
     FM281600 06015G25KT P6SM SCT025 BKN045 OVC070
     FM010000 07015KT P6SM VCSH SCT008 OVC015
     FM010400 08014KT 4SM BR VCSH BKN007 OVC012=



000
FTUS44 KHGX 280530
TAFIAH
TAF
KIAH 280530Z 2806/0112 05010KT P6SM SCT035 BKN060
     FM280800 05011KT P6SM SCT015 BKN035 OVC060
     FM281300 06013KT P6SM SCT015 BKN035 OVC060
     FM281700 08013KT P6SM BKN015 BKN035
     FM010000 10011KT P6SM BKN035 BKN070
     FM010500 10008KT 5SM BR VCSH FEW008 BKN015 OVC025
     FM010800 11006KT 2SM -SHRA BR OVC005=



000
FTUS44 KHGX 280530
TAFSGR
TAF
KSGR 280530Z 2806/0106 05009KT P6SM BKN040
     FM280800 06010KT P6SM SCT015 BKN035 OVC070
     FM281300 06013KT P6SM SCT015 BKN035 OVC060
     FM281700 08013KT P6SM BKN015 BKN035
     FM010000 10011KT P6SM BKN035 BKN070
     FM010500 10008KT 5SM BR VCSH BKN008 BKN015 OVC025=



000
FTUS44 KHGX 280530
TAFCLL
TAF
KCLL 280530Z 2806/0106 04010KT P6SM SCT015 OVC030
     FM280900 05010KT P6SM SCT015 OVC025
     FM281500 06010KT P6SM BKN015 OVC025
     FM010200 08008KT 5SM BR VCSH BKN007 OVC015=



000
FTUS44 KHGX 280530
TAFHOU
TAF
KHOU 280530Z 2806/0106 05010KT P6SM BKN070
     FM280800 06011KT P6SM SCT015 BKN035 OVC070
     FM281300 06013KT P6SM SCT015 BKN035 OVC060
     FM281700 08013KT P6SM BKN015 BKN035
     FM010000 10011KT P6SM BKN035 BKN070
     FM010500 10008KT 5SM BR VCSH FEW008 BKN015 OVC025=



000
FTUS44 KHGX 280530
TAFCLL
TAF
KCLL 280530Z 2806/0106 04010KT P6SM SCT015 OVC030
     FM280900 05010KT P6SM SCT015 OVC025
     FM281500 06010KT P6SM BKN015 OVC025
     FM010200 08008KT 5SM BR VCSH BKN007 OVC015=



000
FTUS44 KHGX 280530
TAFGLS
TAF
KGLS 280530Z 2806/0106 06017KT P6SM FEW025 BKN045 OVC070
     FM280900 05016G26KT P6SM BKN025 BKN045 OVC070
     FM281600 06015G25KT P6SM SCT025 BKN045 OVC070
     FM010000 07015KT P6SM VCSH SCT008 OVC015
     FM010400 08014KT 4SM BR VCSH BKN007 OVC012=



000
FTUS44 KHGX 280530
TAFIAH
TAF
KIAH 280530Z 2806/0112 05010KT P6SM SCT035 BKN060
     FM280800 05011KT P6SM SCT015 BKN035 OVC060
     FM281300 06013KT P6SM SCT015 BKN035 OVC060
     FM281700 08013KT P6SM BKN015 BKN035
     FM010000 10011KT P6SM BKN035 BKN070
     FM010500 10008KT 5SM BR VCSH FEW008 BKN015 OVC025
     FM010800 11006KT 2SM -SHRA BR OVC005=



000
FTUS44 KHGX 280530
TAFSGR
TAF
KSGR 280530Z 2806/0106 05009KT P6SM BKN040
     FM280800 06010KT P6SM SCT015 BKN035 OVC070
     FM281300 06013KT P6SM SCT015 BKN035 OVC060
     FM281700 08013KT P6SM BKN015 BKN035
     FM010000 10011KT P6SM BKN035 BKN070
     FM010500 10008KT 5SM BR VCSH BKN008 BKN015 OVC025=



000
FTUS44 KHGX 280530
TAFLBX
TAF
KLBX 280530Z 2806/0106 03010KT P6SM BKN025 OVC045
     FM280900 06013KT P6SM BKN020 OVC070
     FM281600 06014KT P6SM BKN015 BKN035
     FM010000 08012KT P6SM VCSH SCT008 OVC015
     FM010500 09012KT 4SM BR VCSH BKN008 OVC012=



000
FTUS44 KHGX 280530
TAFUTS
TAF
KUTS 280530Z 2806/0106 06009KT P6SM SCT025 OVC045
     FM281000 05005KT P6SM SCT015 OVC025
     FM281500 06007KT P6SM BKN025 OVC050
     FM281900 07007KT P6SM SCT025 BKN070
     FM010200 08006KT 5SM BR VCSH BKN007 OVC015=



000
FTUS44 KHGX 280530
TAFHOU
TAF
KHOU 280530Z 2806/0106 05010KT P6SM BKN070
     FM280800 06011KT P6SM SCT015 BKN035 OVC070
     FM281300 06013KT P6SM SCT015 BKN035 OVC060
     FM281700 08013KT P6SM BKN015 BKN035
     FM010000 10011KT P6SM BKN035 BKN070
     FM010500 10008KT 5SM BR VCSH FEW008 BKN015 OVC025=



000
FTUS44 KHGX 280530
TAFLBX
TAF
KLBX 280530Z 2806/0106 03010KT P6SM BKN025 OVC045
     FM280900 06013KT P6SM BKN020 OVC070
     FM281600 06014KT P6SM BKN015 BKN035
     FM010000 08012KT P6SM VCSH SCT008 OVC015
     FM010500 09012KT 4SM BR VCSH BKN008 OVC012=



000
FTUS44 KHGX 280530
TAFCXO
TAF
KCXO 280530Z 2806/0106 05006KT P6SM SCT035 BKN060
     FM280900 05005KT P6SM SCT025 BKN035 OVC060
     FM281300 06008KT P6SM BKN025 OVC060
     FM281800 07008KT P6SM BKN015 BKN035
     FM010200 08006KT 5SM BR VCSH SCT008 BKN012 OVC025=



000
FTUS44 KHGX 280530
TAFGLS
TAF
KGLS 280530Z 2806/0106 06017KT P6SM FEW025 BKN045 OVC070
     FM280900 05016G26KT P6SM BKN025 BKN045 OVC070
     FM281600 06015G25KT P6SM SCT025 BKN045 OVC070
     FM010000 07015KT P6SM VCSH SCT008 OVC015
     FM010400 08014KT 4SM BR VCSH BKN007 OVC012=



000
FTUS44 KHGX 280530
TAFCXO
TAF
KCXO 280530Z 2806/0106 05006KT P6SM SCT035 BKN060
     FM280900 05005KT P6SM SCT025 BKN035 OVC060
     FM281300 06008KT P6SM BKN025 OVC060
     FM281800 07008KT P6SM BKN015 BKN035
     FM010200 08006KT 5SM BR VCSH SCT008 BKN012 OVC025=



000
FTUS44 KHGX 280530
TAFUTS
TAF
KUTS 280530Z 2806/0106 06009KT P6SM SCT025 OVC045
     FM281000 05005KT P6SM SCT015 OVC025
     FM281500 06007KT P6SM BKN025 OVC050
     FM281900 07007KT P6SM SCT025 BKN070
     FM010200 08006KT 5SM BR VCSH BKN007 OVC015=



000
FTUS44 KHGX 280402 AAA
TAFUTS
TAF AMD
KUTS 280402Z 2804/2824 06009KT P6SM SCT030 BKN045
     FM280900 05005KT P6SM SCT015 OVC025
     FM281500 07006KT P6SM BKN025 OVC045
     FM281900 08007KT P6SM SCT025 BKN070=



000
FTUS44 KHGX 280402 AAA
TAFUTS
TAF AMD
KUTS 280402Z 2804/2824 06009KT P6SM SCT030 BKN045
     FM280900 05005KT P6SM SCT015 OVC025
     FM281500 07006KT P6SM BKN025 OVC045
     FM281900 08007KT P6SM SCT025 BKN070=



000
FTUS44 KHGX 280402 AAA
TAFUTS
TAF AMD
KUTS 280402Z 2804/2824 06009KT P6SM SCT030 BKN045
     FM280900 05005KT P6SM SCT015 OVC025
     FM281500 07006KT P6SM BKN025 OVC045
     FM281900 08007KT P6SM SCT025 BKN070=



000
FTUS44 KHGX 280402 AAA
TAFUTS
TAF AMD
KUTS 280402Z 2804/2824 06009KT P6SM SCT030 BKN045
     FM280900 05005KT P6SM SCT015 OVC025
     FM281500 07006KT P6SM BKN025 OVC045
     FM281900 08007KT P6SM SCT025 BKN070=



000
FTUS44 KHGX 280309 AAA
TAFGLS
TAF AMD
KGLS 280309Z 2803/2824 06015KT P6SM FEW025 BKN035 BKN090
     FM280900 05016G26KT P6SM BKN025 BKN045 OVC070
     FM281600 06015G25KT P6SM SCT025 BKN045 OVC070=



000
FTUS44 KHGX 280309 AAA
TAFGLS
TAF AMD
KGLS 280309Z 2803/2824 06015KT P6SM FEW025 BKN035 BKN090
     FM280900 05016G26KT P6SM BKN025 BKN045 OVC070
     FM281600 06015G25KT P6SM SCT025 BKN045 OVC070=



000
FTUS44 KHGX 280309 AAA
TAFGLS
TAF AMD
KGLS 280309Z 2803/2824 06015KT P6SM FEW025 BKN035 BKN090
     FM280900 05016G26KT P6SM BKN025 BKN045 OVC070
     FM281600 06015G25KT P6SM SCT025 BKN045 OVC070=



000
FTUS44 KHGX 280309 AAA
TAFGLS
TAF AMD
KGLS 280309Z 2803/2824 06015KT P6SM FEW025 BKN035 BKN090
     FM280900 05016G26KT P6SM BKN025 BKN045 OVC070
     FM281600 06015G25KT P6SM SCT025 BKN045 OVC070=



000
FTUS44 KHGX 280257 AAA
TAFHOU
TAF AMD
KHOU 280257Z 2803/2824 05010KT P6SM BKN060
     FM280800 06011KT P6SM SCT015 BKN035 OVC070
     FM281500 07013KT P6SM BKN015 BKN045
     FM282100 09013KT P6SM SCT035 BKN070=



000
FTUS44 KHGX 280257 AAA
TAFHOU
TAF AMD
KHOU 280257Z 2803/2824 05010KT P6SM BKN060
     FM280800 06011KT P6SM SCT015 BKN035 OVC070
     FM281500 07013KT P6SM BKN015 BKN045
     FM282100 09013KT P6SM SCT035 BKN070=



000
FTUS44 KHGX 280257 AAA
TAFHOU
TAF AMD
KHOU 280257Z 2803/2824 05010KT P6SM BKN060
     FM280800 06011KT P6SM SCT015 BKN035 OVC070
     FM281500 07013KT P6SM BKN015 BKN045
     FM282100 09013KT P6SM SCT035 BKN070=



000
FTUS44 KHGX 280257 AAB
TAFCLL
TAF AMD
KCLL 280257Z 2803/2824 03011KT P6SM BKN035 BKN090
     FM280500 05010KT P6SM BKN015 OVC035
     FM281000 05010KT P6SM BKN015 OVC025
     FM281700 07009KT P6SM BKN025 OVC045
     FM282000 08009KT P6SM BKN025 BKN070=



000
FTUS44 KHGX 280257 AAB
TAFCLL
TAF AMD
KCLL 280257Z 2803/2824 03011KT P6SM BKN035 BKN090
     FM280500 05010KT P6SM BKN015 OVC035
     FM281000 05010KT P6SM BKN015 OVC025
     FM281700 07009KT P6SM BKN025 OVC045
     FM282000 08009KT P6SM BKN025 BKN070=



000
FTUS44 KHGX 280257 AAB
TAFCLL
TAF AMD
KCLL 280257Z 2803/2824 03011KT P6SM BKN035 BKN090
     FM280500 05010KT P6SM BKN015 OVC035
     FM281000 05010KT P6SM BKN015 OVC025
     FM281700 07009KT P6SM BKN025 OVC045
     FM282000 08009KT P6SM BKN025 BKN070=



000
FTUS44 KHGX 280257 AAB
TAFCLL
TAF AMD
KCLL 280257Z 2803/2824 03011KT P6SM BKN035 BKN090
     FM280500 05010KT P6SM BKN015 OVC035
     FM281000 05010KT P6SM BKN015 OVC025
     FM281700 07009KT P6SM BKN025 OVC045
     FM282000 08009KT P6SM BKN025 BKN070=



000
FTUS44 KHGX 280256 AAA
TAFIAH
TAF AMD
KIAH 280256Z 2803/0106 05010KT P6SM BKN060 BKN090
     FM280800 06011KT P6SM SCT015 BKN040 OVC070
     FM281500 07012KT P6SM BKN015 BKN045
     FM282100 09012KT P6SM BKN035 BKN070
     FM010200 10011KT P6SM BKN035 BKN070
     FM010500 11008KT P6SM FEW008 OVC025=



000
FTUS44 KHGX 280256 AAA
TAFIAH
TAF AMD
KIAH 280256Z 2803/0106 05010KT P6SM BKN060 BKN090
     FM280800 06011KT P6SM SCT015 BKN040 OVC070
     FM281500 07012KT P6SM BKN015 BKN045
     FM282100 09012KT P6SM BKN035 BKN070
     FM010200 10011KT P6SM BKN035 BKN070
     FM010500 11008KT P6SM FEW008 OVC025=



000
FTUS44 KHGX 280256 AAA
TAFIAH
TAF AMD
KIAH 280256Z 2803/0106 05010KT P6SM BKN060 BKN090
     FM280800 06011KT P6SM SCT015 BKN040 OVC070
     FM281500 07012KT P6SM BKN015 BKN045
     FM282100 09012KT P6SM BKN035 BKN070
     FM010200 10011KT P6SM BKN035 BKN070
     FM010500 11008KT P6SM FEW008 OVC025=



000
FTUS44 KHGX 280256 AAA
TAFIAH
TAF AMD
KIAH 280256Z 2803/0106 05010KT P6SM BKN060 BKN090
     FM280800 06011KT P6SM SCT015 BKN040 OVC070
     FM281500 07012KT P6SM BKN015 BKN045
     FM282100 09012KT P6SM BKN035 BKN070
     FM010200 10011KT P6SM BKN035 BKN070
     FM010500 11008KT P6SM FEW008 OVC025=



000
FTUS44 KHGX 280218 AAB
TAFLBX
TAF AMD
KLBX 280218Z 2802/2824 05011KT P6SM BKN025 OVC080
     FM280900 06016KT P6SM BKN020 OVC070
     FM281600 06016KT P6SM SCT025 BKN045 OVC070=



000
FTUS44 KHGX 280218 AAB
TAFLBX
TAF AMD
KLBX 280218Z 2802/2824 05011KT P6SM BKN025 OVC080
     FM280900 06016KT P6SM BKN020 OVC070
     FM281600 06016KT P6SM SCT025 BKN045 OVC070=



000
FTUS44 KHGX 280218 AAB
TAFLBX
TAF AMD
KLBX 280218Z 2802/2824 05011KT P6SM BKN025 OVC080
     FM280900 06016KT P6SM BKN020 OVC070
     FM281600 06016KT P6SM SCT025 BKN045 OVC070=



000
FTUS44 KHGX 280218 AAB
TAFLBX
TAF AMD
KLBX 280218Z 2802/2824 05011KT P6SM BKN025 OVC080
     FM280900 06016KT P6SM BKN020 OVC070
     FM281600 06016KT P6SM SCT025 BKN045 OVC070=



000
FTUS44 KHGX 280055 AAA
TAFLBX
TAF AMD
KLBX 280055Z 2801/2824 04011KT P6SM SCT025 BKN100
     FM280200 05013KT P6SM BKN035 OVC080
     FM280900 06016KT P6SM BKN020 OVC070
     FM281600 06016KT P6SM SCT025 BKN045 OVC070=



000
FTUS44 KHGX 280055 AAA
TAFLBX
TAF AMD
KLBX 280055Z 2801/2824 04011KT P6SM SCT025 BKN100
     FM280200 05013KT P6SM BKN035 OVC080
     FM280900 06016KT P6SM BKN020 OVC070
     FM281600 06016KT P6SM SCT025 BKN045 OVC070=



000
FTUS44 KHGX 280055 AAA
TAFLBX
TAF AMD
KLBX 280055Z 2801/2824 04011KT P6SM SCT025 BKN100
     FM280200 05013KT P6SM BKN035 OVC080
     FM280900 06016KT P6SM BKN020 OVC070
     FM281600 06016KT P6SM SCT025 BKN045 OVC070=



000
FTUS44 KHGX 280055 AAA
TAFLBX
TAF AMD
KLBX 280055Z 2801/2824 04011KT P6SM SCT025 BKN100
     FM280200 05013KT P6SM BKN035 OVC080
     FM280900 06016KT P6SM BKN020 OVC070
     FM281600 06016KT P6SM SCT025 BKN045 OVC070=



000
FTUS44 KHGX 280030 AAA
TAFCLL
TAF AMD
KCLL 280030Z 2801/2824 05012KT P6SM BKN025 BKN090
     FM280500 05010KT P6SM SCT015 OVC035
     FM281000 05010KT P6SM SCT015 OVC025
     FM281700 07009KT P6SM BKN025 OVC045
     FM282000 08009KT P6SM BKN025 BKN070=



000
FTUS44 KHGX 280030 AAA
TAFCLL
TAF AMD
KCLL 280030Z 2801/2824 05012KT P6SM BKN025 BKN090
     FM280500 05010KT P6SM SCT015 OVC035
     FM281000 05010KT P6SM SCT015 OVC025
     FM281700 07009KT P6SM BKN025 OVC045
     FM282000 08009KT P6SM BKN025 BKN070=



000
FTUS44 KHGX 280030 AAA
TAFCLL
TAF AMD
KCLL 280030Z 2801/2824 05012KT P6SM BKN025 BKN090
     FM280500 05010KT P6SM SCT015 OVC035
     FM281000 05010KT P6SM SCT015 OVC025
     FM281700 07009KT P6SM BKN025 OVC045
     FM282000 08009KT P6SM BKN025 BKN070=



000
FTUS44 KHGX 280030 AAA
TAFCLL
TAF AMD
KCLL 280030Z 2801/2824 05012KT P6SM BKN025 BKN090
     FM280500 05010KT P6SM SCT015 OVC035
     FM281000 05010KT P6SM SCT015 OVC025
     FM281700 07009KT P6SM BKN025 OVC045
     FM282000 08009KT P6SM BKN025 BKN070=



000
FTUS44 KHGX 272320
TAFHOU
TAF
KHOU 272320Z 2800/2824 05010KT P6SM BKN035 BKN090
     FM280800 06011KT P6SM SCT015 BKN040 OVC070
     FM281600 07013KT P6SM SCT015 BKN045
     FM282100 09013KT P6SM SCT035 BKN070=



000
FTUS44 KHGX 272320
TAFLBX
TAF
KLBX 272320Z 2800/2824 04014KT P6SM BKN015 BKN100
     FM280200 05013KT P6SM BKN035 OVC080
     FM280900 06016KT P6SM BKN020 OVC070
     FM281600 06016KT P6SM SCT025 BKN045 OVC070=



000
FTUS44 KHGX 272320
TAFGLS
TAF
KGLS 272320Z 2800/2824 04015KT P6SM FEW025 BKN035 BKN090
     FM280900 05016G26KT P6SM BKN025 BKN045 OVC070
     FM281600 06015G25KT P6SM SCT025 BKN045 OVC070=



000
FTUS44 KHGX 272320
TAFSGR
TAF
KSGR 272320Z 2800/2824 06011KT P6SM BKN035 BKN090
     FM280800 06011KT P6SM SCT015 BKN040 OVC070
     FM281600 07013KT P6SM SCT015 BKN045
     FM282100 09013KT P6SM SCT035 BKN070=



000
FTUS44 KHGX 272320
TAFCLL
TAF
KCLL 272320Z 2800/2824 06012KT P6SM BKN035 BKN090
     FM280500 05010KT P6SM SCT015 OVC035
     FM281000 05010KT P6SM SCT015 OVC025
     FM281700 07009KT P6SM BKN025 OVC045
     FM282000 08009KT P6SM BKN025 BKN070=



000
FTUS44 KHGX 272320
TAFUTS
TAF
KUTS 272320Z 2800/2824 05007KT P6SM SCT030 BKN090
     FM280400 05006KT P6SM SCT015 OVC035
     FM280900 05005KT P6SM SCT015 OVC025
     FM281500 07006KT P6SM BKN025 OVC045
     FM281900 08007KT P6SM SCT025 BKN070=



000
FTUS44 KHGX 272320
TAFHOU
TAF
KHOU 272320Z 2800/2824 05010KT P6SM BKN035 BKN090
     FM280800 06011KT P6SM SCT015 BKN040 OVC070
     FM281600 07013KT P6SM SCT015 BKN045
     FM282100 09013KT P6SM SCT035 BKN070=



000
FTUS44 KHGX 272320
TAFCLL
TAF
KCLL 272320Z 2800/2824 06012KT P6SM BKN035 BKN090
     FM280500 05010KT P6SM SCT015 OVC035
     FM281000 05010KT P6SM SCT015 OVC025
     FM281700 07009KT P6SM BKN025 OVC045
     FM282000 08009KT P6SM BKN025 BKN070=



000
FTUS44 KHGX 272320
TAFCXO
TAF
KCXO 272320Z 2800/2824 04006KT P6SM BKN035 BKN090
     FM280300 04007KT P6SM BKN045 BKN090
     FM280900 05005KT P6SM BKN015 BKN040 OVC070
     FM281600 06008KT P6SM SCT015 BKN045
     FM282000 06007KT P6SM SCT035 BKN070=



000
FTUS44 KHGX 272320
TAFSGR
TAF
KSGR 272320Z 2800/2824 06011KT P6SM BKN035 BKN090
     FM280800 06011KT P6SM SCT015 BKN040 OVC070
     FM281600 07013KT P6SM SCT015 BKN045
     FM282100 09013KT P6SM SCT035 BKN070=



000
FTUS44 KHGX 272320
TAFSGR
TAF
KSGR 272320Z 2800/2824 06011KT P6SM BKN035 BKN090
     FM280800 06011KT P6SM SCT015 BKN040 OVC070
     FM281600 07013KT P6SM SCT015 BKN045
     FM282100 09013KT P6SM SCT035 BKN070=



000
FTUS44 KHGX 272320
TAFLBX
TAF
KLBX 272320Z 2800/2824 04014KT P6SM BKN015 BKN100
     FM280200 05013KT P6SM BKN035 OVC080
     FM280900 06016KT P6SM BKN020 OVC070
     FM281600 06016KT P6SM SCT025 BKN045 OVC070=



000
FTUS44 KHGX 272320
TAFCXO
TAF
KCXO 272320Z 2800/2824 04006KT P6SM BKN035 BKN090
     FM280300 04007KT P6SM BKN045 BKN090
     FM280900 05005KT P6SM BKN015 BKN040 OVC070
     FM281600 06008KT P6SM SCT015 BKN045
     FM282000 06007KT P6SM SCT035 BKN070=



000
FTUS44 KHGX 272320
TAFGLS
TAF
KGLS 272320Z 2800/2824 04015KT P6SM FEW025 BKN035 BKN090
     FM280900 05016G26KT P6SM BKN025 BKN045 OVC070
     FM281600 06015G25KT P6SM SCT025 BKN045 OVC070=



000
FTUS44 KHGX 272320
TAFGLS
TAF
KGLS 272320Z 2800/2824 04015KT P6SM FEW025 BKN035 BKN090
     FM280900 05016G26KT P6SM BKN025 BKN045 OVC070
     FM281600 06015G25KT P6SM SCT025 BKN045 OVC070=



000
FTUS44 KHGX 272320
TAFIAH
TAF
KIAH 272320Z 2800/0106 05008KT P6SM BKN040 BKN090
     FM280800 06010KT P6SM SCT015 BKN040 OVC070
     FM281600 07012KT P6SM SCT015 BKN045
     FM282100 09012KT P6SM SCT035 BKN070
     FM010200 10011KT P6SM BKN035 BKN070
     FM010500 11008KT P6SM FEW008 OVC025=



000
FTUS44 KHGX 272320
TAFUTS
TAF
KUTS 272320Z 2800/2824 05007KT P6SM SCT030 BKN090
     FM280400 05006KT P6SM SCT015 OVC035
     FM280900 05005KT P6SM SCT015 OVC025
     FM281500 07006KT P6SM BKN025 OVC045
     FM281900 08007KT P6SM SCT025 BKN070=



000
FTUS44 KHGX 272320
TAFLBX
TAF
KLBX 272320Z 2800/2824 04014KT P6SM BKN015 BKN100
     FM280200 05013KT P6SM BKN035 OVC080
     FM280900 06016KT P6SM BKN020 OVC070
     FM281600 06016KT P6SM SCT025 BKN045 OVC070=



000
FTUS44 KHGX 272320
TAFIAH
TAF
KIAH 272320Z 2800/0106 05008KT P6SM BKN040 BKN090
     FM280800 06010KT P6SM SCT015 BKN040 OVC070
     FM281600 07012KT P6SM SCT015 BKN045
     FM282100 09012KT P6SM SCT035 BKN070
     FM010200 10011KT P6SM BKN035 BKN070
     FM010500 11008KT P6SM FEW008 OVC025=



000
FTUS44 KHGX 272320
TAFHOU
TAF
KHOU 272320Z 2800/2824 05010KT P6SM BKN035 BKN090
     FM280800 06011KT P6SM SCT015 BKN040 OVC070
     FM281600 07013KT P6SM SCT015 BKN045
     FM282100 09013KT P6SM SCT035 BKN070=



000
FTUS44 KHGX 272145 AAA
TAFLBX
TAF AMD
KLBX 272145Z 2722/2818 02014KT P6SM OVC016
     FM272300 06011KT P6SM BKN030 BKN100
     FM280300 06013KT P6SM BKN035 OVC080
     FM280900 06016KT P6SM BKN020 OVC070
     FM281600 06017KT P6SM SCT020 OVC070=



000
FTUS44 KHGX 272145 AAA
TAFSGR
TAF AMD
KSGR 272145Z 2722/2818 05010KT P6SM OVC020
     FM272300 06011KT P6SM BKN030 BKN100
     FM280300 05011KT P6SM BKN035 OVC080
     FM280900 06013KT P6SM BKN020 OVC070
     FM281600 06014KT P6SM SCT020 OVC070=



000
FTUS44 KHGX 272145 AAA
TAFLBX
TAF AMD
KLBX 272145Z 2722/2818 02014KT P6SM OVC016
     FM272300 06011KT P6SM BKN030 BKN100
     FM280300 06013KT P6SM BKN035 OVC080
     FM280900 06016KT P6SM BKN020 OVC070
     FM281600 06017KT P6SM SCT020 OVC070=



000
FTUS44 KHGX 272145 AAA
TAFGLS
TAF AMD
KGLS 272145Z 2722/2818 04015KT P6SM OVC016
     FM272300 06013KT P6SM BKN030 BKN100
     FM280300 05016KT P6SM BKN035 OVC080
     FM280900 06017G27KT P6SM BKN020 OVC070
     FM281600 06015G25KT P6SM SCT020 OVC070=



000
FTUS44 KHGX 272145 AAA
TAFSGR
TAF AMD
KSGR 272145Z 2722/2818 05010KT P6SM OVC020
     FM272300 06011KT P6SM BKN030 BKN100
     FM280300 05011KT P6SM BKN035 OVC080
     FM280900 06013KT P6SM BKN020 OVC070
     FM281600 06014KT P6SM SCT020 OVC070=



000
FTUS44 KHGX 272145 AAB
TAFIAH
TAF AMD
KIAH 272145Z 2722/2824 04005KT P6SM OVC022
     FM272300 05011KT P6SM SCT030 BKN100
     FM280300 05011KT P6SM BKN035 OVC080
     FM280900 07013KT P6SM BKN020 OVC070
     FM281600 07013KT P6SM SCT020 OVC070
     FM282100 10013KT P6SM OVC060=



000
FTUS44 KHGX 272145 AAA
TAFSGR
TAF AMD
KSGR 272145Z 2722/2818 05010KT P6SM OVC020
     FM272300 06011KT P6SM BKN030 BKN100
     FM280300 05011KT P6SM BKN035 OVC080
     FM280900 06013KT P6SM BKN020 OVC070
     FM281600 06014KT P6SM SCT020 OVC070=



000
FTUS44 KHGX 272145 AAA
TAFGLS
TAF AMD
KGLS 272145Z 2722/2818 04015KT P6SM OVC016
     FM272300 06013KT P6SM BKN030 BKN100
     FM280300 05016KT P6SM BKN035 OVC080
     FM280900 06017G27KT P6SM BKN020 OVC070
     FM281600 06015G25KT P6SM SCT020 OVC070=



000
FTUS44 KHGX 272145 AAA
TAFLBX
TAF AMD
KLBX 272145Z 2722/2818 02014KT P6SM OVC016
     FM272300 06011KT P6SM BKN030 BKN100
     FM280300 06013KT P6SM BKN035 OVC080
     FM280900 06016KT P6SM BKN020 OVC070
     FM281600 06017KT P6SM SCT020 OVC070=



000
FTUS44 KHGX 272145 AAB
TAFIAH
TAF AMD
KIAH 272145Z 2722/2824 04005KT P6SM OVC022
     FM272300 05011KT P6SM SCT030 BKN100
     FM280300 05011KT P6SM BKN035 OVC080
     FM280900 07013KT P6SM BKN020 OVC070
     FM281600 07013KT P6SM SCT020 OVC070
     FM282100 10013KT P6SM OVC060=



000
FTUS44 KHGX 272145 AAA
TAFHOU
TAF AMD
KHOU 272145Z 2722/2818 03010KT P6SM OVC021
     FM272300 06011KT P6SM BKN030 BKN100
     FM280300 05011KT P6SM BKN035 OVC080
     FM280900 06013KT P6SM BKN020 OVC070
     FM281600 06014KT P6SM SCT020 OVC070=



000
FTUS44 KHGX 272145 AAA
TAFHOU
TAF AMD
KHOU 272145Z 2722/2818 03010KT P6SM OVC021
     FM272300 06011KT P6SM BKN030 BKN100
     FM280300 05011KT P6SM BKN035 OVC080
     FM280900 06013KT P6SM BKN020 OVC070
     FM281600 06014KT P6SM SCT020 OVC070=



000
FTUS44 KHGX 272145 AAB
TAFIAH
TAF AMD
KIAH 272145Z 2722/2824 04005KT P6SM OVC022
     FM272300 05011KT P6SM SCT030 BKN100
     FM280300 05011KT P6SM BKN035 OVC080
     FM280900 07013KT P6SM BKN020 OVC070
     FM281600 07013KT P6SM SCT020 OVC070
     FM282100 10013KT P6SM OVC060=



000
FTUS44 KHGX 272145 AAA
TAFLBX
TAF AMD
KLBX 272145Z 2722/2818 02014KT P6SM OVC016
     FM272300 06011KT P6SM BKN030 BKN100
     FM280300 06013KT P6SM BKN035 OVC080
     FM280900 06016KT P6SM BKN020 OVC070
     FM281600 06017KT P6SM SCT020 OVC070=



000
FTUS44 KHGX 272145 AAA
TAFHOU
TAF AMD
KHOU 272145Z 2722/2818 03010KT P6SM OVC021
     FM272300 06011KT P6SM BKN030 BKN100
     FM280300 05011KT P6SM BKN035 OVC080
     FM280900 06013KT P6SM BKN020 OVC070
     FM281600 06014KT P6SM SCT020 OVC070=



000
FTUS44 KHGX 272145 AAA
TAFSGR
TAF AMD
KSGR 272145Z 2722/2818 05010KT P6SM OVC020
     FM272300 06011KT P6SM BKN030 BKN100
     FM280300 05011KT P6SM BKN035 OVC080
     FM280900 06013KT P6SM BKN020 OVC070
     FM281600 06014KT P6SM SCT020 OVC070=



000
FTUS44 KHGX 272145 AAB
TAFIAH
TAF AMD
KIAH 272145Z 2722/2824 04005KT P6SM OVC022
     FM272300 05011KT P6SM SCT030 BKN100
     FM280300 05011KT P6SM BKN035 OVC080
     FM280900 07013KT P6SM BKN020 OVC070
     FM281600 07013KT P6SM SCT020 OVC070
     FM282100 10013KT P6SM OVC060=



000
FTUS44 KHGX 272145 AAA
TAFGLS
TAF AMD
KGLS 272145Z 2722/2818 04015KT P6SM OVC016
     FM272300 06013KT P6SM BKN030 BKN100
     FM280300 05016KT P6SM BKN035 OVC080
     FM280900 06017G27KT P6SM BKN020 OVC070
     FM281600 06015G25KT P6SM SCT020 OVC070=



000
FTUS44 KHGX 272145 AAA
TAFHOU
TAF AMD
KHOU 272145Z 2722/2818 03010KT P6SM OVC021
     FM272300 06011KT P6SM BKN030 BKN100
     FM280300 05011KT P6SM BKN035 OVC080
     FM280900 06013KT P6SM BKN020 OVC070
     FM281600 06014KT P6SM SCT020 OVC070=



000
FTUS44 KHGX 272004 AAA
TAFIAH
TAF AMD
KIAH 272004Z 2720/2824 04008KT P6SM OVC022
     FM272130 05011KT P6SM SCT040 BKN100
     FM280300 05011KT P6SM BKN035 OVC080
     FM280900 07013KT P6SM BKN020 OVC070
     FM281600 07013KT P6SM SCT020 OVC070
     FM282100 10013KT P6SM OVC060=



000
FTUS44 KHGX 272004 AAA
TAFIAH
TAF AMD
KIAH 272004Z 2720/2824 04008KT P6SM OVC022
     FM272130 05011KT P6SM SCT040 BKN100
     FM280300 05011KT P6SM BKN035 OVC080
     FM280900 07013KT P6SM BKN020 OVC070
     FM281600 07013KT P6SM SCT020 OVC070
     FM282100 10013KT P6SM OVC060=



000
FTUS44 KHGX 272004 AAA
TAFIAH
TAF AMD
KIAH 272004Z 2720/2824 04008KT P6SM OVC022
     FM272130 05011KT P6SM SCT040 BKN100
     FM280300 05011KT P6SM BKN035 OVC080
     FM280900 07013KT P6SM BKN020 OVC070
     FM281600 07013KT P6SM SCT020 OVC070
     FM282100 10013KT P6SM OVC060=



000
FTUS44 KHGX 272004 AAA
TAFIAH
TAF AMD
KIAH 272004Z 2720/2824 04008KT P6SM OVC022
     FM272130 05011KT P6SM SCT040 BKN100
     FM280300 05011KT P6SM BKN035 OVC080
     FM280900 07013KT P6SM BKN020 OVC070
     FM281600 07013KT P6SM SCT020 OVC070
     FM282100 10013KT P6SM OVC060=



000
FTUS44 KHGX 271935 AAA
TAFUTS
TAF AMD
KUTS 271935Z 2720/2818 04005KT P6SM OVC090
     FM272100 05007KT P6SM BKN030 BKN080
     FM280200 05005KT P6SM SCT015 OVC030
     FM280900 06004KT P6SM SCT009 OVC020
     FM281600 07006KT P6SM BKN025 OVC060=



000
FTUS44 KHGX 271935 AAA
TAFUTS
TAF AMD
KUTS 271935Z 2720/2818 04005KT P6SM OVC090
     FM272100 05007KT P6SM BKN030 BKN080
     FM280200 05005KT P6SM SCT015 OVC030
     FM280900 06004KT P6SM SCT009 OVC020
     FM281600 07006KT P6SM BKN025 OVC060=



000
FTUS44 KHGX 271935 AAA
TAFUTS
TAF AMD
KUTS 271935Z 2720/2818 04005KT P6SM OVC090
     FM272100 05007KT P6SM BKN030 BKN080
     FM280200 05005KT P6SM SCT015 OVC030
     FM280900 06004KT P6SM SCT009 OVC020
     FM281600 07006KT P6SM BKN025 OVC060=



000
FTUS44 KHGX 271935 AAA
TAFUTS
TAF AMD
KUTS 271935Z 2720/2818 04005KT P6SM OVC090
     FM272100 05007KT P6SM BKN030 BKN080
     FM280200 05005KT P6SM SCT015 OVC030
     FM280900 06004KT P6SM SCT009 OVC020
     FM281600 07006KT P6SM BKN025 OVC060=



000
FTUS44 KHGX 271934 AAA
TAFCXO
TAF AMD
KCXO 271934Z 2720/2818 04006KT P6SM SCT030 OVC100
     FM280300 04007KT P6SM BKN035 OVC080
     FM280900 05005KT P6SM BKN020 OVC070
     FM281600 05008KT P6SM SCT020 OVC070=



000
FTUS44 KHGX 271934 AAA
TAFCXO
TAF AMD
KCXO 271934Z 2720/2818 04006KT P6SM SCT030 OVC100
     FM280300 04007KT P6SM BKN035 OVC080
     FM280900 05005KT P6SM BKN020 OVC070
     FM281600 05008KT P6SM SCT020 OVC070=



000
FTUS44 KHGX 271934 AAA
TAFCXO
TAF AMD
KCXO 271934Z 2720/2818 04006KT P6SM SCT030 OVC100
     FM280300 04007KT P6SM BKN035 OVC080
     FM280900 05005KT P6SM BKN020 OVC070
     FM281600 05008KT P6SM SCT020 OVC070=



000
FTUS44 KHGX 271933 AAA
TAFCLL
TAF AMD
KCLL 271933Z 2720/2818 04011KT P6SM SCT026 BKN090
      TEMPO 2720/2721 BKN026
     FM280200 06010KT P6SM SCT015 OVC030
     FM280900 06011KT P6SM SCT009 OVC018
     FM281600 07010KT P6SM BKN025 OVC060=



000
FTUS44 KHGX 271933 AAA
TAFCLL
TAF AMD
KCLL 271933Z 2720/2818 04011KT P6SM SCT026 BKN090
      TEMPO 2720/2721 BKN026
     FM280200 06010KT P6SM SCT015 OVC030
     FM280900 06011KT P6SM SCT009 OVC018
     FM281600 07010KT P6SM BKN025 OVC060=



000
FTUS44 KHGX 271933 AAA
TAFCLL
TAF AMD
KCLL 271933Z 2720/2818 04011KT P6SM SCT026 BKN090
      TEMPO 2720/2721 BKN026
     FM280200 06010KT P6SM SCT015 OVC030
     FM280900 06011KT P6SM SCT009 OVC018
     FM281600 07010KT P6SM BKN025 OVC060=



000
FTUS44 KHGX 271933 AAA
TAFCLL
TAF AMD
KCLL 271933Z 2720/2818 04011KT P6SM SCT026 BKN090
      TEMPO 2720/2721 BKN026
     FM280200 06010KT P6SM SCT015 OVC030
     FM280900 06011KT P6SM SCT009 OVC018
     FM281600 07010KT P6SM BKN025 OVC060=



000
FTUS44 KHGX 271720
TAFCLL
TAF
KCLL 271720Z 2718/2818 05009KT P6SM OVC025
     FM272100 05012KT P6SM BKN030 BKN080
     FM280200 06010KT P6SM SCT015 OVC030
     FM280900 06011KT P6SM SCT009 OVC018
     FM281600 07010KT P6SM BKN025 OVC060=



000
FTUS44 KHGX 271720
TAFIAH
TAF
KIAH 271720Z 2718/2824 07008KT P6SM OVC022
      TEMPO 2719/2720 SCT030 BKN100
     FM272000 06011KT P6SM SCT040 BKN100
     FM280300 05011KT P6SM BKN035 OVC080
     FM280900 07013KT P6SM BKN020 OVC070
     FM281600 07013KT P6SM SCT020 OVC070
     FM282100 10013KT P6SM OVC060=



000
FTUS44 KHGX 271720
TAFHOU
TAF
KHOU 271720Z 2718/2818 07011KT P6SM OVC022
      TEMPO 2719/2720 SCT030 BKN100
     FM272000 06011KT P6SM SCT040 BKN100
     FM280300 05011KT P6SM BKN035 OVC080
     FM280900 06013KT P6SM BKN020 OVC070
     FM281600 06014KT P6SM SCT020 OVC070=



000
FTUS44 KHGX 271720
TAFUTS
TAF
KUTS 271720Z 2718/2818 06007KT P6SM SCT025 OVC110
      TEMPO 2718/2720 BKN025
     FM272100 05007KT P6SM BKN030 BKN080
     FM280200 05005KT P6SM SCT015 OVC030
     FM280900 06004KT P6SM SCT009 OVC020
     FM281600 07006KT P6SM BKN025 OVC060=



000
FTUS44 KHGX 271720
TAFIAH
TAF
KIAH 271720Z 2718/2824 07008KT P6SM OVC022
      TEMPO 2719/2720 SCT030 BKN100
     FM272000 06011KT P6SM SCT040 BKN100
     FM280300 05011KT P6SM BKN035 OVC080
     FM280900 07013KT P6SM BKN020 OVC070
     FM281600 07013KT P6SM SCT020 OVC070
     FM282100 10013KT P6SM OVC060=



000
FTUS44 KHGX 271720
TAFCXO
TAF
KCXO 271720Z 2718/2818 05007KT P6SM SCT028 OVC100
      TEMPO 2718/2720 BKN025
     FM272000 05008KT P6SM SCT040 BKN100
     FM280300 04007KT P6SM BKN035 OVC080
     FM280900 05005KT P6SM BKN020 OVC070
     FM281600 05008KT P6SM SCT020 OVC070=



000
FTUS44 KHGX 271720
TAFLBX
TAF
KLBX 271720Z 2718/2818 04013KT P6SM OVC020
      TEMPO 2719/2720 SCT030 BKN100
     FM272000 06011KT P6SM SCT040 BKN100
     FM280300 06013KT P6SM BKN035 OVC080
     FM280900 06016KT P6SM BKN020 OVC070
     FM281600 06017KT P6SM SCT020 OVC070=



000
FTUS44 KHGX 271720
TAFUTS
TAF
KUTS 271720Z 2718/2818 06007KT P6SM SCT025 OVC110
      TEMPO 2718/2720 BKN025
     FM272100 05007KT P6SM BKN030 BKN080
     FM280200 05005KT P6SM SCT015 OVC030
     FM280900 06004KT P6SM SCT009 OVC020
     FM281600 07006KT P6SM BKN025 OVC060=



000
FTUS44 KHGX 271720
TAFCXO
TAF
KCXO 271720Z 2718/2818 05007KT P6SM SCT028 OVC100
      TEMPO 2718/2720 BKN025
     FM272000 05008KT P6SM SCT040 BKN100
     FM280300 04007KT P6SM BKN035 OVC080
     FM280900 05005KT P6SM BKN020 OVC070
     FM281600 05008KT P6SM SCT020 OVC070=



000
FTUS44 KHGX 271720
TAFSGR
TAF
KSGR 271720Z 2718/2818 07011KT P6SM OVC022
      TEMPO 2719/2720 SCT030 BKN100
     FM272000 06011KT P6SM SCT040 BKN100
     FM280300 05011KT P6SM BKN035 OVC080
     FM280900 06013KT P6SM BKN020 OVC070
     FM281600 06014KT P6SM SCT020 OVC070=



000
FTUS44 KHGX 271720
TAFCLL
TAF
KCLL 271720Z 2718/2818 05009KT P6SM OVC025
     FM272100 05012KT P6SM BKN030 BKN080
     FM280200 06010KT P6SM SCT015 OVC030
     FM280900 06011KT P6SM SCT009 OVC018
     FM281600 07010KT P6SM BKN025 OVC060=



000
FTUS44 KHGX 271720
TAFHOU
TAF
KHOU 271720Z 2718/2818 07011KT P6SM OVC022
      TEMPO 2719/2720 SCT030 BKN100
     FM272000 06011KT P6SM SCT040 BKN100
     FM280300 05011KT P6SM BKN035 OVC080
     FM280900 06013KT P6SM BKN020 OVC070
     FM281600 06014KT P6SM SCT020 OVC070=



000
FTUS44 KHGX 271720
TAFSGR
TAF
KSGR 271720Z 2718/2818 07011KT P6SM OVC022
      TEMPO 2719/2720 SCT030 BKN100
     FM272000 06011KT P6SM SCT040 BKN100
     FM280300 05011KT P6SM BKN035 OVC080
     FM280900 06013KT P6SM BKN020 OVC070
     FM281600 06014KT P6SM SCT020 OVC070=



000
FTUS44 KHGX 271720
TAFGLS
TAF
KGLS 271720Z 2718/2818 02013KT P6SM OVC017
      TEMPO 2719/2720 BKN025
     FM272000 06013KT P6SM SCT030 BKN100
     FM280300 05016KT P6SM BKN035 OVC080
     FM280900 06017G27KT P6SM BKN020 OVC070
     FM281600 06015G25KT P6SM SCT020 OVC070=



000
FTUS44 KHGX 271720
TAFLBX
TAF
KLBX 271720Z 2718/2818 04013KT P6SM OVC020
      TEMPO 2719/2720 SCT030 BKN100
     FM272000 06011KT P6SM SCT040 BKN100
     FM280300 06013KT P6SM BKN035 OVC080
     FM280900 06016KT P6SM BKN020 OVC070
     FM281600 06017KT P6SM SCT020 OVC070=



000
FTUS44 KHGX 271720
TAFGLS
TAF
KGLS 271720Z 2718/2818 02013KT P6SM OVC017
      TEMPO 2719/2720 BKN025
     FM272000 06013KT P6SM SCT030 BKN100
     FM280300 05016KT P6SM BKN035 OVC080
     FM280900 06017G27KT P6SM BKN020 OVC070
     FM281600 06015G25KT P6SM SCT020 OVC070=



000
FTUS44 KHGX 271652 AAB
TAFUTS
TAF AMD
KUTS 271652Z 2717/2812 06007KT P6SM BKN022 OVC110
     FM272100 05007KT P6SM BKN030 BKN080
     FM280200 05005KT P6SM SCT015 OVC030
     FM280900 06004KT P6SM SCT009 OVC020=



000
FTUS44 KHGX 271652 AAB
TAFUTS
TAF AMD
KUTS 271652Z 2717/2812 06007KT P6SM BKN022 OVC110
     FM272100 05007KT P6SM BKN030 BKN080
     FM280200 05005KT P6SM SCT015 OVC030
     FM280900 06004KT P6SM SCT009 OVC020=



000
FTUS44 KHGX 271652 AAB
TAFUTS
TAF AMD
KUTS 271652Z 2717/2812 06007KT P6SM BKN022 OVC110
     FM272100 05007KT P6SM BKN030 BKN080
     FM280200 05005KT P6SM SCT015 OVC030
     FM280900 06004KT P6SM SCT009 OVC020=



000
FTUS44 KHGX 271652 AAB
TAFUTS
TAF AMD
KUTS 271652Z 2717/2812 06007KT P6SM BKN022 OVC110
     FM272100 05007KT P6SM BKN030 BKN080
     FM280200 05005KT P6SM SCT015 OVC030
     FM280900 06004KT P6SM SCT009 OVC020=



000
FTUS44 KHGX 271651 AAA
TAFCLL
TAF AMD
KCLL 271651Z 2717/2812 06009KT P6SM OVC023
     FM272100 05012KT P6SM BKN030 BKN080
     FM280200 06010KT P6SM SCT015 OVC030
     FM280900 06011KT P6SM SCT009 OVC018=



000
FTUS44 KHGX 271651 AAA
TAFCLL
TAF AMD
KCLL 271651Z 2717/2812 06009KT P6SM OVC023
     FM272100 05012KT P6SM BKN030 BKN080
     FM280200 06010KT P6SM SCT015 OVC030
     FM280900 06011KT P6SM SCT009 OVC018=



000
FTUS44 KHGX 271646 AAA
TAFGLS
TAF AMD
KGLS 271646Z 2717/2812 02013KT P6SM OVC015
     FM271800 04013KT P6SM BKN025
     FM272000 06013KT P6SM SCT040 BKN100
     FM280300 05016KT P6SM BKN035 OVC080
     FM280900 06016G26KT P6SM BKN020 OVC070=



000
FTUS44 KHGX 271646 AAA
TAFGLS
TAF AMD
KGLS 271646Z 2717/2812 02013KT P6SM OVC015
     FM271800 04013KT P6SM BKN025
     FM272000 06013KT P6SM SCT040 BKN100
     FM280300 05016KT P6SM BKN035 OVC080
     FM280900 06016G26KT P6SM BKN020 OVC070=



000
FTUS44 KHGX 271646 AAA
TAFGLS
TAF AMD
KGLS 271646Z 2717/2812 02013KT P6SM OVC015
     FM271800 04013KT P6SM BKN025
     FM272000 06013KT P6SM SCT040 BKN100
     FM280300 05016KT P6SM BKN035 OVC080
     FM280900 06016G26KT P6SM BKN020 OVC070=



000
FTUS44 KHGX 271646 AAA
TAFGLS
TAF AMD
KGLS 271646Z 2717/2812 02013KT P6SM OVC015
     FM271800 04013KT P6SM BKN025
     FM272000 06013KT P6SM SCT040 BKN100
     FM280300 05016KT P6SM BKN035 OVC080
     FM280900 06016G26KT P6SM BKN020 OVC070=



000
FTUS44 KHGX 271544 AAA
TAFLBX
TAF AMD
KLBX 271544Z 2716/2812 03010KT P6SM OVC020
     FM271800 06011KT P6SM BKN030
     FM272000 06011KT P6SM SCT040 BKN100
     FM280300 06013KT P6SM BKN035 OVC080
     FM280900 06016KT P6SM BKN020 OVC070=



000
FTUS44 KHGX 271544 AAA
TAFLBX
TAF AMD
KLBX 271544Z 2716/2812 03010KT P6SM OVC020
     FM271800 06011KT P6SM BKN030
     FM272000 06011KT P6SM SCT040 BKN100
     FM280300 06013KT P6SM BKN035 OVC080
     FM280900 06016KT P6SM BKN020 OVC070=



000
FTUS44 KHGX 271542 AAA
TAFSGR
TAF AMD
KSGR 271542Z 2716/2812 11005KT P6SM OVC021
      TEMPO 2716/2717 OVC017
     FM271800 06011KT P6SM BKN030
     FM272000 06011KT P6SM SCT040 BKN100
     FM280300 05011KT P6SM BKN035 OVC080
     FM280900 06013KT P6SM BKN020 OVC070=



000
FTUS44 KHGX 271538 AAA
TAFHOU
TAF AMD
KHOU 271538Z 2716/2812 07007KT P6SM OVC022
      TEMPO 2716/2717 BKN019
     FM271800 06011KT P6SM BKN030
     FM272000 06011KT P6SM SCT040 BKN100
     FM280300 05011KT P6SM BKN035 OVC080
     FM280900 06013KT P6SM BKN020 OVC070=



000
FTUS44 KHGX 271538 AAA
TAFHOU
TAF AMD
KHOU 271538Z 2716/2812 07007KT P6SM OVC022
      TEMPO 2716/2717 BKN019
     FM271800 06011KT P6SM BKN030
     FM272000 06011KT P6SM SCT040 BKN100
     FM280300 05011KT P6SM BKN035 OVC080
     FM280900 06013KT P6SM BKN020 OVC070=



000
FTUS44 KHGX 271538 AAA
TAFIAH
TAF AMD
KIAH 271538Z 2716/2818 07008KT P6SM OVC022
     FM271800 06011KT P6SM BKN030
     FM272000 06011KT P6SM SCT040 BKN100
     FM280300 05011KT P6SM BKN035 OVC080
     FM280900 07013KT P6SM BKN020 OVC070
     FM281500 06013KT P6SM SCT020 OVC070=



000
FTUS44 KHGX 271538 AAA
TAFIAH
TAF AMD
KIAH 271538Z 2716/2818 07008KT P6SM OVC022
     FM271800 06011KT P6SM BKN030
     FM272000 06011KT P6SM SCT040 BKN100
     FM280300 05011KT P6SM BKN035 OVC080
     FM280900 07013KT P6SM BKN020 OVC070
     FM281500 06013KT P6SM SCT020 OVC070=



000
FTUS44 KHGX 271353 AAA
TAFUTS
TAF AMD
KUTS 271353Z 2714/2812 VRB05KT P6SM BKN020 OVC090
     FM271500 06005KT P6SM SCT030 BKN050
     FM280600 06003KT P6SM BKN030=



000
FTUS44 KHGX 271353 AAA
TAFUTS
TAF AMD
KUTS 271353Z 2714/2812 VRB05KT P6SM BKN020 OVC090
     FM271500 06005KT P6SM SCT030 BKN050
     FM280600 06003KT P6SM BKN030=



000
FTUS44 KHGX 271353 AAA
TAFUTS
TAF AMD
KUTS 271353Z 2714/2812 VRB05KT P6SM BKN020 OVC090
     FM271500 06005KT P6SM SCT030 BKN050
     FM280600 06003KT P6SM BKN030=



000
FTUS44 KHGX 271353 AAA
TAFUTS
TAF AMD
KUTS 271353Z 2714/2812 VRB05KT P6SM BKN020 OVC090
     FM271500 06005KT P6SM SCT030 BKN050
     FM280600 06003KT P6SM BKN030=



000
FTUS44 KHGX 271214 CCA
TAFCXO
TAF COR
KCXO 271214Z 2712/2812 02007KT P6SM OVC015
     FM271600 04008KT P6SM BKN025
     FM272100 03005KT P6SM OVC050=



000
FTUS44 KHGX 271214 CCA
TAFCXO
TAF COR
KCXO 271214Z 2712/2812 02007KT P6SM OVC015
     FM271600 04008KT P6SM BKN025
     FM272100 03005KT P6SM OVC050=



000
FTUS44 KHGX 271145
TAFGLS
TAF
KGLS 271145Z 2712/2812 05016KT P6SM OVC015
     FM271900 06015G22KT P6SM SCT080 BKN110
     FM280600 05019G26KT P6SM SCT025 BKN050=



000
FTUS44 KHGX 271145
TAFGLS
TAF
KGLS 271145Z 2712/2812 05016KT P6SM OVC015
     FM271900 06015G22KT P6SM SCT080 BKN110
     FM280600 05019G26KT P6SM SCT025 BKN050=



000
FTUS44 KHGX 271145
TAFLBX
TAF
KLBX 271145Z 2712/2812 05007KT P6SM OVC015
     FM271600 06009KT P6SM SCT025 BKN050
     FM280700 06015KT P6SM BKN035=



000
FTUS44 KHGX 271145
TAFLBX
TAF
KLBX 271145Z 2712/2812 05007KT P6SM OVC015
     FM271600 06009KT P6SM SCT025 BKN050
     FM280700 06015KT P6SM BKN035=



000
FTUS44 KHGX 271140
TAFUTS
TAF
KUTS 271140Z 2712/2812 VRB05KT P6SM OVC090
     FM271500 06005KT P6SM BKN050
     FM280600 06003KT P6SM BKN030=



000
FTUS44 KHGX 271140
TAFGLS
TAF
KGLS 271140Z 2712/2812 05016KT P6SM OVC016
     FM271500 04017KT P6SM BKN025
     FM271700 03014KT P6SM BKN050
     FM280200 04018KT P6SM BKN035=



000
FTUS44 KHGX 271140
TAFCXO
TAF
KCXO 271140Z 2712/2812 02007KT P6SM OVC015
     FM271600 04008KT P6SM BKN025
     FM280300 03006KT P6SM BKN090=



000
FTUS44 KHGX 271140
TAFIAH
TAF
KIAH 271140Z 2712/2818 05009KT P6SM OVC015
     FM271600 06010KT P6SM SCT025 BKN110
     FM272100 06011KT P6SM BKN080
     FM280500 06012KT P6SM BKN030 OVC060=



000
FTUS44 KHGX 271140
TAFSGR
TAF
KSGR 271140Z 2712/2812 05010KT P6SM OVC015
     FM271500 04010KT P6SM BKN025
     FM271700 03009KT P6SM BKN050
     FM280300 06013KT P6SM BKN035 OVC050=



000
FTUS44 KHGX 271140
TAFHOU
TAF
KHOU 271140Z 2712/2812 05010KT P6SM OVC016
     FM271500 04012KT P6SM BKN025
     FM271700 04009KT P6SM BKN050
     FM280300 05015KT P6SM BKN035 OVC050=



000
FTUS44 KHGX 271140
TAFCLL
TAF
KCLL 271140Z 2712/2812 04009KT P6SM OVC090
     FM271500 04013KT P6SM SCT030 BKN060
     FM280900 05009KT P6SM BKN030=



000
FTUS44 KHGX 271140
TAFGLS
TAF
KGLS 271140Z 2712/2812 05016KT P6SM OVC016
     FM271500 04017KT P6SM BKN025
     FM271700 03014KT P6SM BKN050
     FM280200 04018KT P6SM BKN035=



000
FTUS44 KHGX 271140
TAFCXO
TAF
KCXO 271140Z 2712/2812 02007KT P6SM OVC015
     FM271600 04008KT P6SM BKN025
     FM280300 03006KT P6SM BKN090=



000
FTUS44 KHGX 271140
TAFLBX
TAF
KLBX 271140Z 2712/2812 05007KT P6SM OVC017
     FM271600 04009KT P6SM BKN050
     FM280300 05014KT P6SM BKN035=



000
FTUS44 KHGX 271140
TAFLBX
TAF
KLBX 271140Z 2712/2812 05007KT P6SM OVC017
     FM271600 04009KT P6SM BKN050
     FM280300 05014KT P6SM BKN035=



000
FTUS44 KHGX 271140
TAFIAH
TAF
KIAH 271140Z 2712/2818 05009KT P6SM OVC015
     FM271600 06010KT P6SM SCT025 BKN110
     FM272100 06011KT P6SM BKN080
     FM280500 06012KT P6SM BKN030 OVC060=



000
FTUS44 KHGX 271140
TAFCLL
TAF
KCLL 271140Z 2712/2812 04009KT P6SM OVC090
     FM271500 04013KT P6SM SCT030 BKN060
     FM280900 05009KT P6SM BKN030=



000
FTUS44 KHGX 271140
TAFUTS
TAF
KUTS 271140Z 2712/2812 VRB05KT P6SM OVC090
     FM271500 06005KT P6SM BKN050
     FM280600 06003KT P6SM BKN030=



000
FTUS44 KHGX 271140
TAFSGR
TAF
KSGR 271140Z 2712/2812 05010KT P6SM OVC015
     FM271500 04010KT P6SM BKN025
     FM271700 03009KT P6SM BKN050
     FM280300 06013KT P6SM BKN035 OVC050=



000
FTUS44 KHGX 271140
TAFHOU
TAF
KHOU 271140Z 2712/2812 05010KT P6SM OVC016
     FM271500 04012KT P6SM BKN025
     FM271700 04009KT P6SM BKN050
     FM280300 05015KT P6SM BKN035 OVC050=



000
FTUS44 KHGX 270900 AAA
TAFHOU
TAF AMD
KHOU 270900Z 2709/2806 03013KT P6SM OVC015
     FM271500 04012KT P6SM BKN025
     FM271700 04009KT P6SM BKN050
     FM280300 04015KT P6SM BKN035=



000
FTUS44 KHGX 270900 AAA
TAFIAH
TAF AMD
KIAH 270900Z 2709/2812 01011KT P6SM OVC015
     FM271500 04011KT P6SM BKN025
     FM271700 04009KT P6SM BKN050=



000
FTUS44 KHGX 270900 AAA
TAFIAH
TAF AMD
KIAH 270900Z 2709/2812 01011KT P6SM OVC015
     FM271500 04011KT P6SM BKN025
     FM271700 04009KT P6SM BKN050=



000
FTUS44 KHGX 270900 AAA
TAFHOU
TAF AMD
KHOU 270900Z 2709/2806 03013KT P6SM OVC015
     FM271500 04012KT P6SM BKN025
     FM271700 04009KT P6SM BKN050
     FM280300 04015KT P6SM BKN035=



000
FTUS44 KHGX 270521
TAFCLL
TAF
KCLL 270521Z 2706/2806 01010KT P6SM SCT020 BKN090
     FM270800 02008KT P6SM BKN015 BKN080
     FM271500 04011KT P6SM BKN025
     FM271900 03009KT P6SM BKN050=



000
FTUS44 KHGX 270521
TAFUTS
TAF
KUTS 270521Z 2706/2806 01006KT P6SM SCT015 BKN100
      TEMPO 2706/2709 BKN015
     FM270900 02005KT P6SM BKN015 BKN080
     FM271500 04007KT P6SM BKN025
     FM272000 03005KT P6SM BKN050=



000
FTUS44 KHGX 270521
TAFCLL
TAF
KCLL 270521Z 2706/2806 01010KT P6SM SCT020 BKN090
     FM270800 02008KT P6SM BKN015 BKN080
     FM271500 04011KT P6SM BKN025
     FM271900 03009KT P6SM BKN050=



000
FTUS44 KHGX 270521
TAFSGR
TAF
KSGR 270521Z 2706/2806 02013KT P6SM BKN015 BKN100
     FM271500 04010KT P6SM BKN025
     FM271700 03009KT P6SM BKN050
     FM280300 05013KT P6SM BKN035=



000
FTUS44 KHGX 270521
TAFGLS
TAF
KGLS 270521Z 2706/2806 02020G30KT P6SM BKN015
     FM271500 04017KT P6SM BKN025
     FM271700 03014KT P6SM BKN050
     FM280200 04018KT P6SM BKN035=



000
FTUS44 KHGX 270521
TAFCXO
TAF
KCXO 270521Z 2706/2806 01006KT P6SM BKN015 BKN100
     FM271500 04008KT P6SM BKN025
     FM271900 03006KT P6SM BKN050=



000
FTUS44 KHGX 270521
TAFHOU
TAF
KHOU 270521Z 2706/2806 02013KT P6SM BKN015 BKN100
     FM271500 04012KT P6SM BKN025
     FM271700 04009KT P6SM BKN050
     FM280300 04015KT P6SM BKN035=



000
FTUS44 KHGX 270521
TAFSGR
TAF
KSGR 270521Z 2706/2806 02013KT P6SM BKN015 BKN100
     FM271500 04010KT P6SM BKN025
     FM271700 03009KT P6SM BKN050
     FM280300 05013KT P6SM BKN035=



000
FTUS44 KHGX 270521
TAFIAH
TAF
KIAH 270521Z 2706/2812 02010KT P6SM BKN015 BKN100
     FM271500 04011KT P6SM BKN025
     FM271700 04009KT P6SM BKN050=



000
FTUS44 KHGX 270521
TAFLBX
TAF
KLBX 270521Z 2706/2806 02010KT P6SM SCT015
      TEMPO 2706/2709 BKN015
     FM270900 03010KT P6SM BKN015 BKN100
     FM271600 04009KT P6SM BKN050
     FM280300 05014KT P6SM BKN035=



000
FTUS44 KHGX 270521
TAFUTS
TAF
KUTS 270521Z 2706/2806 01006KT P6SM SCT015 BKN100
      TEMPO 2706/2709 BKN015
     FM270900 02005KT P6SM BKN015 BKN080
     FM271500 04007KT P6SM BKN025
     FM272000 03005KT P6SM BKN050=



000
FTUS44 KHGX 270521
TAFSGR
TAF
KSGR 270521Z 2706/2806 02013KT P6SM BKN015 BKN100
     FM271500 04010KT P6SM BKN025
     FM271700 03009KT P6SM BKN050
     FM280300 05013KT P6SM BKN035=



000
FTUS44 KHGX 270521
TAFGLS
TAF
KGLS 270521Z 2706/2806 02020G30KT P6SM BKN015
     FM271500 04017KT P6SM BKN025
     FM271700 03014KT P6SM BKN050
     FM280200 04018KT P6SM BKN035=



000
FTUS44 KHGX 270521
TAFLBX
TAF
KLBX 270521Z 2706/2806 02010KT P6SM SCT015
      TEMPO 2706/2709 BKN015
     FM270900 03010KT P6SM BKN015 BKN100
     FM271600 04009KT P6SM BKN050
     FM280300 05014KT P6SM BKN035=



000
FTUS44 KHGX 270521
TAFCXO
TAF
KCXO 270521Z 2706/2806 01006KT P6SM BKN015 BKN100
     FM271500 04008KT P6SM BKN025
     FM271900 03006KT P6SM BKN050=



000
FTUS44 KHGX 270521
TAFCLL
TAF
KCLL 270521Z 2706/2806 01010KT P6SM SCT020 BKN090
     FM270800 02008KT P6SM BKN015 BKN080
     FM271500 04011KT P6SM BKN025
     FM271900 03009KT P6SM BKN050=



000
FTUS44 KHGX 270521
TAFIAH
TAF
KIAH 270521Z 2706/2812 02010KT P6SM BKN015 BKN100
     FM271500 04011KT P6SM BKN025
     FM271700 04009KT P6SM BKN050=



000
FTUS44 KHGX 270521
TAFHOU
TAF
KHOU 270521Z 2706/2806 02013KT P6SM BKN015 BKN100
     FM271500 04012KT P6SM BKN025
     FM271700 04009KT P6SM BKN050
     FM280300 04015KT P6SM BKN035=



000
FTUS44 KHGX 270521
TAFGLS
TAF
KGLS 270521Z 2706/2806 02020G30KT P6SM BKN015
     FM271500 04017KT P6SM BKN025
     FM271700 03014KT P6SM BKN050
     FM280200 04018KT P6SM BKN035=



000
FTUS44 KHGX 270521
TAFHOU
TAF
KHOU 270521Z 2706/2806 02013KT P6SM BKN015 BKN100
     FM271500 04012KT P6SM BKN025
     FM271700 04009KT P6SM BKN050
     FM280300 04015KT P6SM BKN035=



000
FTUS44 KHGX 270521
TAFLBX
TAF
KLBX 270521Z 2706/2806 02010KT P6SM SCT015
      TEMPO 2706/2709 BKN015
     FM270900 03010KT P6SM BKN015 BKN100
     FM271600 04009KT P6SM BKN050
     FM280300 05014KT P6SM BKN035=



000
FTUS44 KHGX 270521
TAFIAH
TAF
KIAH 270521Z 2706/2812 02010KT P6SM BKN015 BKN100
     FM271500 04011KT P6SM BKN025
     FM271700 04009KT P6SM BKN050=



000
FTUS44 KHGX 270521
TAFCXO
TAF
KCXO 270521Z 2706/2806 01006KT P6SM BKN015 BKN100
     FM271500 04008KT P6SM BKN025
     FM271900 03006KT P6SM BKN050=



000
FTUS44 KHGX 270521
TAFUTS
TAF
KUTS 270521Z 2706/2806 01006KT P6SM SCT015 BKN100
      TEMPO 2706/2709 BKN015
     FM270900 02005KT P6SM BKN015 BKN080
     FM271500 04007KT P6SM BKN025
     FM272000 03005KT P6SM BKN050=



000
FTUS44 KHGX 270521
TAFSGR
TAF
KSGR 270521Z 2706/2806 02013KT P6SM BKN015 BKN100
     FM271500 04010KT P6SM BKN025
     FM271700 03009KT P6SM BKN050
     FM280300 05013KT P6SM BKN035=



000
FTUS44 KHGX 270521
TAFCLL
TAF
KCLL 270521Z 2706/2806 01010KT P6SM SCT020 BKN090
     FM270800 02008KT P6SM BKN015 BKN080
     FM271500 04011KT P6SM BKN025
     FM271900 03009KT P6SM BKN050=



000
FTUS44 KHGX 270315 AAB
TAFIAH
TAF AMD
KIAH 270315Z 2703/2806 02014KT P6SM BKN018
      TEMPO 2704/2706 SCT018
     FM271500 04011KT P6SM BKN025
     FM271700 04009KT P6SM SCT030=



000
FTUS44 KHGX 270315 AAB
TAFIAH
TAF AMD
KIAH 270315Z 2703/2806 02014KT P6SM BKN018
      TEMPO 2704/2706 SCT018
     FM271500 04011KT P6SM BKN025
     FM271700 04009KT P6SM SCT030=



000
FTUS44 KHGX 270314 AAA
TAFHOU
TAF AMD
KHOU 270314Z 2703/2724 01016KT P6SM BKN018
     FM271500 04011KT P6SM BKN025
     FM271700 04009KT P6SM SCT030=



000
FTUS44 KHGX 270217 AAA
TAFCLL
TAF AMD
KCLL 270217Z 2702/2724 01013KT P6SM SCT020 BKN090
     FM270600 02012KT P6SM BKN015 BKN070
     FM271500 04011KT P6SM BKN025
     FM272000 03007KT P6SM SCT030=



000
FTUS44 KHGX 270217 AAA
TAFCLL
TAF AMD
KCLL 270217Z 2702/2724 01013KT P6SM SCT020 BKN090
     FM270600 02012KT P6SM BKN015 BKN070
     FM271500 04011KT P6SM BKN025
     FM272000 03007KT P6SM SCT030=



000
FTUS44 KHGX 270108 AAA
TAFIAH
TAF AMD
KIAH 270108Z 2701/2806 02013KT P6SM BKN018
     FM271500 04011KT P6SM BKN025
     FM271700 04009KT P6SM SCT030=



000
FTUS44 KHGX 270108 AAA
TAFIAH
TAF AMD
KIAH 270108Z 2701/2806 02013KT P6SM BKN018
     FM271500 04011KT P6SM BKN025
     FM271700 04009KT P6SM SCT030=



    US Dept of Commerce
    National Oceanic and Atmospheric Administration
    National Weather Service
    1325 East West Highway
    Silver Spring, MD 20910
    Page Author: NWS Internet Services Team
Disclaimer
Information Quality
Credits
Glossary
Privacy Policy
Freedom of Information Act (FOIA)
About Us
Career Opportunities